<?xml version="1.0" encoding="UTF-8" standalone="no" ?>
<gpx xmlns="http://www.topografix.com/GPX/1/1" xmlns:xsi="http://www.w3.org/2001/XMLSchema-instance" xsi:schemaLocation="http://www.topografix.com/GPX/1/1 http://www.topografix.com/GPX/1/1/gpx.xsd" version="1.1" creator="VisuGPX - https://www.visugpx.com">
  <metadata>
    <name>TELETHON 2013 PLOUIDER-BRIGNOGAN</name>
    <desc><![CDATA[Randonnée pédestre au profit du Téléthon entre Plouider et Brignogan par de nouveaux chemins.]]></desc>
  </metadata>
  <trk>
    <name><![CDATA[Untitled]]></name>
    <trkseg>
      <trkpt lat="48.42816" lon="2.65973">
        <ele>143.80000305176</ele>
        <time>2013-12-05T12:57:08.000Z</time>
      </trkpt>
      <trkpt lat="48.42822" lon="2.65968">
        <ele>143.39999389648</ele>
        <time>2013-12-05T12:57:14.000Z</time>
      </trkpt>
      <trkpt lat="48.42829" lon="2.65963">
        <ele>143.19999694824</ele>
        <time>2013-12-05T12:57:17.000Z</time>
      </trkpt>
      <trkpt lat="48.42839" lon="2.65953">
        <ele>142.80000305176</ele>
        <time>2013-12-05T12:57:20.000Z</time>
      </trkpt>
      <trkpt lat="48.42857" lon="2.65943">
        <ele>141.80000305176</ele>
        <time>2013-12-05T12:57:27.000Z</time>
      </trkpt>
      <trkpt lat="48.42862" lon="2.65942">
        <ele>141.60000610352</ele>
        <time>2013-12-05T12:57:28.000Z</time>
      </trkpt>
      <trkpt lat="48.42867" lon="2.6594">
        <ele>141.39999389648</ele>
        <time>2013-12-05T12:57:31.000Z</time>
      </trkpt>
      <trkpt lat="48.42874" lon="2.65939">
        <ele>141</ele>
        <time>2013-12-05T12:57:35.000Z</time>
      </trkpt>
      <trkpt lat="48.42879" lon="2.65937">
        <ele>140.80000305176</ele>
        <time>2013-12-05T12:57:38.000Z</time>
      </trkpt>
      <trkpt lat="48.42881" lon="2.65935">
        <ele>140.80000305176</ele>
        <time>2013-12-05T12:57:40.000Z</time>
      </trkpt>
      <trkpt lat="48.42887" lon="2.65935">
        <ele>140.39999389648</ele>
        <time>2013-12-05T12:57:44.000Z</time>
      </trkpt>
      <trkpt lat="48.42898" lon="2.6593">
        <ele>139.80000305176</ele>
        <time>2013-12-05T12:57:49.000Z</time>
      </trkpt>
      <trkpt lat="48.42909" lon="2.65922">
        <ele>139.39999389648</ele>
        <time>2013-12-05T12:57:53.000Z</time>
      </trkpt>
      <trkpt lat="48.4292" lon="2.65914">
        <ele>139</ele>
        <time>2013-12-05T12:57:57.000Z</time>
      </trkpt>
      <trkpt lat="48.42926" lon="2.6591">
        <ele>139</ele>
        <time>2013-12-05T12:57:58.000Z</time>
      </trkpt>
      <trkpt lat="48.42931" lon="2.65905">
        <ele>139</ele>
        <time>2013-12-05T12:58:01.000Z</time>
      </trkpt>
      <trkpt lat="48.42937" lon="2.65904">
        <ele>139</ele>
        <time>2013-12-05T12:58:03.000Z</time>
      </trkpt>
      <trkpt lat="48.4295" lon="2.6589">
        <ele>138.80000305176</ele>
        <time>2013-12-05T12:58:08.000Z</time>
      </trkpt>
      <trkpt lat="48.4296" lon="2.65888">
        <ele>138.80000305176</ele>
        <time>2013-12-05T12:58:12.000Z</time>
      </trkpt>
      <trkpt lat="48.42967" lon="2.65883">
        <ele>138.80000305176</ele>
        <time>2013-12-05T12:58:15.000Z</time>
      </trkpt>
      <trkpt lat="48.42975" lon="2.65872">
        <ele>138.39999389648</ele>
        <time>2013-12-05T12:58:19.000Z</time>
      </trkpt>
      <trkpt lat="48.42987" lon="2.65856">
        <ele>137.80000305176</ele>
        <time>2013-12-05T12:58:22.000Z</time>
      </trkpt>
      <trkpt lat="48.42995" lon="2.65848">
        <ele>137.60000610352</ele>
        <time>2013-12-05T12:58:26.000Z</time>
      </trkpt>
      <trkpt lat="48.43014" lon="2.65847">
        <ele>137.39999389648</ele>
        <time>2013-12-05T12:58:31.000Z</time>
      </trkpt>
      <trkpt lat="48.43026" lon="2.65853">
        <ele>137.39999389648</ele>
        <time>2013-12-05T12:58:35.000Z</time>
      </trkpt>
      <trkpt lat="48.43042" lon="2.65854">
        <ele>137.39999389648</ele>
        <time>2013-12-05T12:58:41.000Z</time>
      </trkpt>
      <trkpt lat="48.4305" lon="2.65862">
        <ele>137.60000610352</ele>
        <time>2013-12-05T12:58:44.000Z</time>
      </trkpt>
      <trkpt lat="48.43059" lon="2.6587">
        <ele>138</ele>
        <time>2013-12-05T12:58:48.000Z</time>
      </trkpt>
      <trkpt lat="48.43068" lon="2.65874">
        <ele>138</ele>
        <time>2013-12-05T12:58:51.000Z</time>
      </trkpt>
      <trkpt lat="48.43082" lon="2.6588">
        <ele>138.19999694824</ele>
        <time>2013-12-05T12:58:55.000Z</time>
      </trkpt>
      <trkpt lat="48.43098" lon="2.65889">
        <ele>138.80000305176</ele>
        <time>2013-12-05T12:59:00.000Z</time>
      </trkpt>
      <trkpt lat="48.43106" lon="2.65892">
        <ele>139</ele>
        <time>2013-12-05T12:59:03.000Z</time>
      </trkpt>
      <trkpt lat="48.4312" lon="2.65889">
        <ele>139</ele>
        <time>2013-12-05T12:59:07.000Z</time>
      </trkpt>
      <trkpt lat="48.43129" lon="2.65887">
        <ele>139</ele>
        <time>2013-12-05T12:59:10.000Z</time>
      </trkpt>
      <trkpt lat="48.4313" lon="2.65885">
        <ele>139</ele>
        <time>2013-12-05T12:59:11.000Z</time>
      </trkpt>
      <trkpt lat="48.43133" lon="2.65874">
        <ele>138.60000610352</ele>
        <time>2013-12-05T12:59:15.000Z</time>
      </trkpt>
      <trkpt lat="48.43136" lon="2.65861">
        <ele>138.19999694824</ele>
        <time>2013-12-05T12:59:19.000Z</time>
      </trkpt>
      <trkpt lat="48.43143" lon="2.65846">
        <ele>137.80000305176</ele>
        <time>2013-12-05T12:59:23.000Z</time>
      </trkpt>
      <trkpt lat="48.43155" lon="2.6583">
        <ele>137.60000610352</ele>
        <time>2013-12-05T12:59:26.000Z</time>
      </trkpt>
      <trkpt lat="48.4316" lon="2.65818">
        <ele>137.80000305176</ele>
        <time>2013-12-05T12:59:29.000Z</time>
      </trkpt>
      <trkpt lat="48.43171" lon="2.65797">
        <ele>138.39999389648</ele>
        <time>2013-12-05T12:59:35.000Z</time>
      </trkpt>
      <trkpt lat="48.43176" lon="2.65781">
        <ele>138.80000305176</ele>
        <time>2013-12-05T12:59:38.000Z</time>
      </trkpt>
      <trkpt lat="48.43185" lon="2.6577">
        <ele>139.39999389648</ele>
        <time>2013-12-05T12:59:43.000Z</time>
      </trkpt>
      <trkpt lat="48.43186" lon="2.65767">
        <ele>139.39999389648</ele>
        <time>2013-12-05T12:59:44.000Z</time>
      </trkpt>
      <trkpt lat="48.43187" lon="2.65763">
        <ele>139.60000610352</ele>
        <time>2013-12-05T12:59:45.000Z</time>
      </trkpt>
      <trkpt lat="48.43191" lon="2.65758">
        <ele>139.80000305176</ele>
        <time>2013-12-05T12:59:47.000Z</time>
      </trkpt>
      <trkpt lat="48.43196" lon="2.65747">
        <ele>140</ele>
        <time>2013-12-05T12:59:50.000Z</time>
      </trkpt>
      <trkpt lat="48.43202" lon="2.65737">
        <ele>140.19999694824</ele>
        <time>2013-12-05T12:59:53.000Z</time>
      </trkpt>
      <trkpt lat="48.4321" lon="2.65714">
        <ele>140</ele>
        <time>2013-12-05T12:59:59.000Z</time>
      </trkpt>
      <trkpt lat="48.43213" lon="2.65702">
        <ele>140</ele>
        <time>2013-12-05T13:00:02.000Z</time>
      </trkpt>
      <trkpt lat="48.43218" lon="2.65673">
        <ele>139.39999389648</ele>
        <time>2013-12-05T13:00:08.000Z</time>
      </trkpt>
      <trkpt lat="48.43226" lon="2.65669">
        <ele>140</ele>
        <time>2013-12-05T13:00:13.000Z</time>
      </trkpt>
      <trkpt lat="48.43228" lon="2.6565">
        <ele>139.39999389648</ele>
        <time>2013-12-05T13:00:18.000Z</time>
      </trkpt>
      <trkpt lat="48.43229" lon="2.65638">
        <ele>139</ele>
        <time>2013-12-05T13:00:21.000Z</time>
      </trkpt>
      <trkpt lat="48.43235" lon="2.65627">
        <ele>139</ele>
        <time>2013-12-05T13:00:24.000Z</time>
      </trkpt>
      <trkpt lat="48.43246" lon="2.65606">
        <ele>138.80000305176</ele>
        <time>2013-12-05T13:00:30.000Z</time>
      </trkpt>
      <trkpt lat="48.4325" lon="2.65599">
        <ele>138.80000305176</ele>
        <time>2013-12-05T13:00:32.000Z</time>
      </trkpt>
      <trkpt lat="48.4325" lon="2.65582">
        <ele>138</ele>
        <time>2013-12-05T13:00:35.000Z</time>
      </trkpt>
      <trkpt lat="48.4325" lon="2.65564">
        <ele>137.80000305176</ele>
        <time>2013-12-05T13:00:40.000Z</time>
      </trkpt>
      <trkpt lat="48.4325" lon="2.65561">
        <ele>137.80000305176</ele>
        <time>2013-12-05T13:00:41.000Z</time>
      </trkpt>
      <trkpt lat="48.43252" lon="2.65543">
        <ele>137.60000610352</ele>
        <time>2013-12-05T13:00:45.000Z</time>
      </trkpt>
      <trkpt lat="48.43254" lon="2.6553">
        <ele>137.60000610352</ele>
        <time>2013-12-05T13:00:48.000Z</time>
      </trkpt>
      <trkpt lat="48.43257" lon="2.65512">
        <ele>137.39999389648</ele>
        <time>2013-12-05T13:00:52.000Z</time>
      </trkpt>
      <trkpt lat="48.43257" lon="2.65479">
        <ele>136.80000305176</ele>
        <time>2013-12-05T13:00:59.000Z</time>
      </trkpt>
      <trkpt lat="48.4325" lon="2.65466">
        <ele>136.19999694824</ele>
        <time>2013-12-05T13:01:03.000Z</time>
      </trkpt>
      <trkpt lat="48.43245" lon="2.65463">
        <ele>136</ele>
        <time>2013-12-05T13:01:05.000Z</time>
      </trkpt>
      <trkpt lat="48.43232" lon="2.65453">
        <ele>135.19999694824</ele>
        <time>2013-12-05T13:01:10.000Z</time>
      </trkpt>
      <trkpt lat="48.43229" lon="2.65451">
        <ele>135.19999694824</ele>
        <time>2013-12-05T13:01:11.000Z</time>
      </trkpt>
      <trkpt lat="48.43215" lon="2.6544">
        <ele>134.39999389648</ele>
        <time>2013-12-05T13:01:17.000Z</time>
      </trkpt>
      <trkpt lat="48.43208" lon="2.65427">
        <ele>134.19999694824</ele>
        <time>2013-12-05T13:01:21.000Z</time>
      </trkpt>
      <trkpt lat="48.43209" lon="2.65415">
        <ele>134</ele>
        <time>2013-12-05T13:01:25.000Z</time>
      </trkpt>
      <trkpt lat="48.43208" lon="2.65404">
        <ele>133.60000610352</ele>
        <time>2013-12-05T13:01:28.000Z</time>
      </trkpt>
      <trkpt lat="48.43203" lon="2.65383">
        <ele>133.19999694824</ele>
        <time>2013-12-05T13:01:34.000Z</time>
      </trkpt>
      <trkpt lat="48.43205" lon="2.65363">
        <ele>132.60000610352</ele>
        <time>2013-12-05T13:01:37.000Z</time>
      </trkpt>
      <trkpt lat="48.43206" lon="2.65346">
        <ele>132.19999694824</ele>
        <time>2013-12-05T13:01:42.000Z</time>
      </trkpt>
      <trkpt lat="48.43205" lon="2.65324">
        <ele>131.39999389648</ele>
        <time>2013-12-05T13:01:47.000Z</time>
      </trkpt>
      <trkpt lat="48.43208" lon="2.65302">
        <ele>130.19999694824</ele>
        <time>2013-12-05T13:01:52.000Z</time>
      </trkpt>
      <trkpt lat="48.4321" lon="2.65292">
        <ele>129.39999389648</ele>
        <time>2013-12-05T13:01:54.000Z</time>
      </trkpt>
      <trkpt lat="48.43216" lon="2.65277">
        <ele>128.39999389648</ele>
        <time>2013-12-05T13:01:58.000Z</time>
      </trkpt>
      <trkpt lat="48.43218" lon="2.65265">
        <ele>127.59999847412</ele>
        <time>2013-12-05T13:02:01.000Z</time>
      </trkpt>
      <trkpt lat="48.43219" lon="2.65245">
        <ele>126.19999694824</ele>
        <time>2013-12-05T13:02:05.000Z</time>
      </trkpt>
      <trkpt lat="48.4322" lon="2.65242">
        <ele>126</ele>
        <time>2013-12-05T13:02:06.000Z</time>
      </trkpt>
      <trkpt lat="48.43222" lon="2.65229">
        <ele>125</ele>
        <time>2013-12-05T13:02:08.000Z</time>
      </trkpt>
      <trkpt lat="48.43227" lon="2.65221">
        <ele>124.19999694824</ele>
        <time>2013-12-05T13:02:14.000Z</time>
      </trkpt>
      <trkpt lat="48.43234" lon="2.65212">
        <ele>123.19999694824</ele>
        <time>2013-12-05T13:02:17.000Z</time>
      </trkpt>
      <trkpt lat="48.4324" lon="2.65197">
        <ele>121.40000152588</ele>
        <time>2013-12-05T13:02:21.000Z</time>
      </trkpt>
      <trkpt lat="48.43245" lon="2.65188">
        <ele>120.40000152588</ele>
        <time>2013-12-05T13:02:24.000Z</time>
      </trkpt>
      <trkpt lat="48.43248" lon="2.65167">
        <ele>118.19999694824</ele>
        <time>2013-12-05T13:02:28.000Z</time>
      </trkpt>
      <trkpt lat="48.43249" lon="2.65162">
        <ele>118</ele>
        <time>2013-12-05T13:02:29.000Z</time>
      </trkpt>
      <trkpt lat="48.43255" lon="2.65144">
        <ele>116.80000305176</ele>
        <time>2013-12-05T13:02:34.000Z</time>
      </trkpt>
      <trkpt lat="48.43258" lon="2.65141">
        <ele>116.40000152588</ele>
        <time>2013-12-05T13:02:35.000Z</time>
      </trkpt>
      <trkpt lat="48.4326" lon="2.65133">
        <ele>116</ele>
        <time>2013-12-05T13:02:37.000Z</time>
      </trkpt>
      <trkpt lat="48.43271" lon="2.65125">
        <ele>114.80000305176</ele>
        <time>2013-12-05T13:02:41.000Z</time>
      </trkpt>
      <trkpt lat="48.43277" lon="2.65118">
        <ele>114</ele>
        <time>2013-12-05T13:02:44.000Z</time>
      </trkpt>
      <trkpt lat="48.43283" lon="2.65108">
        <ele>112.80000305176</ele>
        <time>2013-12-05T13:02:48.000Z</time>
      </trkpt>
      <trkpt lat="48.43289" lon="2.65096">
        <ele>111.40000152588</ele>
        <time>2013-12-05T13:02:52.000Z</time>
      </trkpt>
      <trkpt lat="48.43293" lon="2.65077">
        <ele>109.19999694824</ele>
        <time>2013-12-05T13:02:56.000Z</time>
      </trkpt>
      <trkpt lat="48.43294" lon="2.65073">
        <ele>108.80000305176</ele>
        <time>2013-12-05T13:02:57.000Z</time>
      </trkpt>
      <trkpt lat="48.43295" lon="2.65068">
        <ele>108.19999694824</ele>
        <time>2013-12-05T13:02:58.000Z</time>
      </trkpt>
      <trkpt lat="48.433" lon="2.65051">
        <ele>106.19999694824</ele>
        <time>2013-12-05T13:03:02.000Z</time>
      </trkpt>
      <trkpt lat="48.433" lon="2.65042">
        <ele>105.40000152588</ele>
        <time>2013-12-05T13:03:03.000Z</time>
      </trkpt>
      <trkpt lat="48.43305" lon="2.65016">
        <ele>102.59999847412</ele>
        <time>2013-12-05T13:03:08.000Z</time>
      </trkpt>
      <trkpt lat="48.43307" lon="2.65006">
        <ele>101.40000152588</ele>
        <time>2013-12-05T13:03:11.000Z</time>
      </trkpt>
      <trkpt lat="48.43314" lon="2.64984">
        <ele>100</ele>
        <time>2013-12-05T13:03:16.000Z</time>
      </trkpt>
      <trkpt lat="48.43318" lon="2.64958">
        <ele>99.199996948242</ele>
        <time>2013-12-05T13:03:22.000Z</time>
      </trkpt>
      <trkpt lat="48.4332" lon="2.64943">
        <ele>98.800003051758</ele>
        <time>2013-12-05T13:03:25.000Z</time>
      </trkpt>
      <trkpt lat="48.43313" lon="2.64918">
        <ele>98.599998474121</ele>
        <time>2013-12-05T13:03:31.000Z</time>
      </trkpt>
      <trkpt lat="48.43307" lon="2.64894">
        <ele>98.599998474121</ele>
        <time>2013-12-05T13:03:37.000Z</time>
      </trkpt>
      <trkpt lat="48.43304" lon="2.64875">
        <ele>98.599998474121</ele>
        <time>2013-12-05T13:03:41.000Z</time>
      </trkpt>
      <trkpt lat="48.43301" lon="2.64853">
        <ele>98.400001525879</ele>
        <time>2013-12-05T13:03:46.000Z</time>
      </trkpt>
      <trkpt lat="48.43298" lon="2.64829">
        <ele>98.400001525879</ele>
        <time>2013-12-05T13:03:51.000Z</time>
      </trkpt>
      <trkpt lat="48.43297" lon="2.64809">
        <ele>98.199996948242</ele>
        <time>2013-12-05T13:03:56.000Z</time>
      </trkpt>
      <trkpt lat="48.43294" lon="2.64786">
        <ele>98.199996948242</ele>
        <time>2013-12-05T13:04:01.000Z</time>
      </trkpt>
      <trkpt lat="48.4329" lon="2.64757">
        <ele>98</ele>
        <time>2013-12-05T13:04:08.000Z</time>
      </trkpt>
      <trkpt lat="48.43287" lon="2.64734">
        <ele>98.199996948242</ele>
        <time>2013-12-05T13:04:14.000Z</time>
      </trkpt>
      <trkpt lat="48.43282" lon="2.64707">
        <ele>98.199996948242</ele>
        <time>2013-12-05T13:04:20.000Z</time>
      </trkpt>
      <trkpt lat="48.43279" lon="2.64682">
        <ele>98.400001525879</ele>
        <time>2013-12-05T13:04:26.000Z</time>
      </trkpt>
      <trkpt lat="48.43275" lon="2.64662">
        <ele>98.400001525879</ele>
        <time>2013-12-05T13:04:30.000Z</time>
      </trkpt>
      <trkpt lat="48.43271" lon="2.64637">
        <ele>98.400001525879</ele>
        <time>2013-12-05T13:04:37.000Z</time>
      </trkpt>
      <trkpt lat="48.43268" lon="2.64611">
        <ele>98.199996948242</ele>
        <time>2013-12-05T13:04:43.000Z</time>
      </trkpt>
      <trkpt lat="48.43265" lon="2.64592">
        <ele>98.400001525879</ele>
        <time>2013-12-05T13:04:48.000Z</time>
      </trkpt>
      <trkpt lat="48.43259" lon="2.64563">
        <ele>99.400001525879</ele>
        <time>2013-12-05T13:04:55.000Z</time>
      </trkpt>
      <trkpt lat="48.43255" lon="2.64546">
        <ele>100</ele>
        <time>2013-12-05T13:04:59.000Z</time>
      </trkpt>
      <trkpt lat="48.43255" lon="2.64542">
        <ele>100.19999694824</ele>
        <time>2013-12-05T13:05:00.000Z</time>
      </trkpt>
      <trkpt lat="48.43255" lon="2.6453">
        <ele>100.80000305176</ele>
        <time>2013-12-05T13:05:04.000Z</time>
      </trkpt>
      <trkpt lat="48.43258" lon="2.64528">
        <ele>100.59999847412</ele>
        <time>2013-12-05T13:05:05.000Z</time>
      </trkpt>
      <trkpt lat="48.4327" lon="2.64517">
        <ele>100.40000152588</ele>
        <time>2013-12-05T13:05:10.000Z</time>
      </trkpt>
      <trkpt lat="48.43276" lon="2.64509">
        <ele>100.40000152588</ele>
        <time>2013-12-05T13:05:13.000Z</time>
      </trkpt>
      <trkpt lat="48.43289" lon="2.64501">
        <ele>100</ele>
        <time>2013-12-05T13:05:17.000Z</time>
      </trkpt>
      <trkpt lat="48.43299" lon="2.64495">
        <ele>99.800003051758</ele>
        <time>2013-12-05T13:05:20.000Z</time>
      </trkpt>
      <trkpt lat="48.43323" lon="2.64475">
        <ele>99</ele>
        <time>2013-12-05T13:05:30.000Z</time>
      </trkpt>
      <trkpt lat="48.43332" lon="2.6447">
        <ele>98.800003051758</ele>
        <time>2013-12-05T13:05:32.000Z</time>
      </trkpt>
      <trkpt lat="48.43339" lon="2.64459">
        <ele>99</ele>
        <time>2013-12-05T13:05:36.000Z</time>
      </trkpt>
      <trkpt lat="48.43348" lon="2.64447">
        <ele>99.599998474121</ele>
        <time>2013-12-05T13:05:40.000Z</time>
      </trkpt>
      <trkpt lat="48.43357" lon="2.64434">
        <ele>100</ele>
        <time>2013-12-05T13:05:44.000Z</time>
      </trkpt>
      <trkpt lat="48.43361" lon="2.64429">
        <ele>100</ele>
        <time>2013-12-05T13:05:46.000Z</time>
      </trkpt>
      <trkpt lat="48.43368" lon="2.64416">
        <ele>100.40000152588</ele>
        <time>2013-12-05T13:05:51.000Z</time>
      </trkpt>
      <trkpt lat="48.43372" lon="2.64398">
        <ele>100.40000152588</ele>
        <time>2013-12-05T13:05:55.000Z</time>
      </trkpt>
      <trkpt lat="48.43376" lon="2.64381">
        <ele>100.59999847412</ele>
        <time>2013-12-05T13:05:59.000Z</time>
      </trkpt>
      <trkpt lat="48.43377" lon="2.64377">
        <ele>100.59999847412</ele>
        <time>2013-12-05T13:06:00.000Z</time>
      </trkpt>
      <trkpt lat="48.43379" lon="2.64354">
        <ele>100.59999847412</ele>
        <time>2013-12-05T13:06:05.000Z</time>
      </trkpt>
      <trkpt lat="48.43384" lon="2.64338">
        <ele>100.59999847412</ele>
        <time>2013-12-05T13:06:08.000Z</time>
      </trkpt>
      <trkpt lat="48.43388" lon="2.64325">
        <ele>100.40000152588</ele>
        <time>2013-12-05T13:06:12.000Z</time>
      </trkpt>
      <trkpt lat="48.434" lon="2.6431">
        <ele>100</ele>
        <time>2013-12-05T13:06:17.000Z</time>
      </trkpt>
      <trkpt lat="48.43401" lon="2.64306">
        <ele>99.800003051758</ele>
        <time>2013-12-05T13:06:18.000Z</time>
      </trkpt>
      <trkpt lat="48.43406" lon="2.64285">
        <ele>99.199996948242</ele>
        <time>2013-12-05T13:06:24.000Z</time>
      </trkpt>
      <trkpt lat="48.43419" lon="2.64244">
        <ele>98.199996948242</ele>
        <time>2013-12-05T13:06:34.000Z</time>
      </trkpt>
      <trkpt lat="48.43422" lon="2.64236">
        <ele>98.400001525879</ele>
        <time>2013-12-05T13:06:36.000Z</time>
      </trkpt>
      <trkpt lat="48.43425" lon="2.64211">
        <ele>98.599998474121</ele>
        <time>2013-12-05T13:06:42.000Z</time>
      </trkpt>
      <trkpt lat="48.43426" lon="2.64185">
        <ele>98.599998474121</ele>
        <time>2013-12-05T13:06:48.000Z</time>
      </trkpt>
      <trkpt lat="48.43428" lon="2.64168">
        <ele>98.599998474121</ele>
        <time>2013-12-05T13:06:52.000Z</time>
      </trkpt>
      <trkpt lat="48.43432" lon="2.64152">
        <ele>99.599998474121</ele>
        <time>2013-12-05T13:06:56.000Z</time>
      </trkpt>
      <trkpt lat="48.43433" lon="2.64148">
        <ele>99.800003051758</ele>
        <time>2013-12-05T13:06:57.000Z</time>
      </trkpt>
      <trkpt lat="48.43437" lon="2.64149">
        <ele>100</ele>
        <time>2013-12-05T13:06:59.000Z</time>
      </trkpt>
      <trkpt lat="48.43444" lon="2.64133">
        <ele>101.19999694824</ele>
        <time>2013-12-05T13:07:04.000Z</time>
      </trkpt>
      <trkpt lat="48.43454" lon="2.64129">
        <ele>101.80000305176</ele>
        <time>2013-12-05T13:07:07.000Z</time>
      </trkpt>
      <trkpt lat="48.43462" lon="2.64121">
        <ele>102.59999847412</ele>
        <time>2013-12-05T13:07:11.000Z</time>
      </trkpt>
      <trkpt lat="48.43465" lon="2.64112">
        <ele>103.19999694824</ele>
        <time>2013-12-05T13:07:14.000Z</time>
      </trkpt>
      <trkpt lat="48.43467" lon="2.64098">
        <ele>103.80000305176</ele>
        <time>2013-12-05T13:07:18.000Z</time>
      </trkpt>
      <trkpt lat="48.43468" lon="2.64095">
        <ele>104</ele>
        <time>2013-12-05T13:07:19.000Z</time>
      </trkpt>
      <trkpt lat="48.43467" lon="2.64093">
        <ele>104</ele>
        <time>2013-12-05T13:07:20.000Z</time>
      </trkpt>
      <trkpt lat="48.43467" lon="2.64084">
        <ele>104.40000152588</ele>
        <time>2013-12-05T13:07:23.000Z</time>
      </trkpt>
      <trkpt lat="48.4347" lon="2.6406">
        <ele>106.80000305176</ele>
        <time>2013-12-05T13:07:29.000Z</time>
      </trkpt>
      <trkpt lat="48.43471" lon="2.64048">
        <ele>108.19999694824</ele>
        <time>2013-12-05T13:07:34.000Z</time>
      </trkpt>
      <trkpt lat="48.43472" lon="2.64045">
        <ele>108.40000152588</ele>
        <time>2013-12-05T13:07:35.000Z</time>
      </trkpt>
      <trkpt lat="48.43472" lon="2.64035">
        <ele>109.40000152588</ele>
        <time>2013-12-05T13:07:38.000Z</time>
      </trkpt>
      <trkpt lat="48.43471" lon="2.6402">
        <ele>111</ele>
        <time>2013-12-05T13:07:43.000Z</time>
      </trkpt>
      <trkpt lat="48.43472" lon="2.6401">
        <ele>112</ele>
        <time>2013-12-05T13:07:46.000Z</time>
      </trkpt>
      <trkpt lat="48.43473" lon="2.64005">
        <ele>112.59999847412</ele>
        <time>2013-12-05T13:07:48.000Z</time>
      </trkpt>
      <trkpt lat="48.43474" lon="2.63993">
        <ele>113.80000305176</ele>
        <time>2013-12-05T13:07:51.000Z</time>
      </trkpt>
      <trkpt lat="48.43474" lon="2.63979">
        <ele>115.40000152588</ele>
        <time>2013-12-05T13:07:55.000Z</time>
      </trkpt>
      <trkpt lat="48.43475" lon="2.63974">
        <ele>116.19999694824</ele>
        <time>2013-12-05T13:07:57.000Z</time>
      </trkpt>
      <trkpt lat="48.43476" lon="2.63967">
        <ele>117</ele>
        <time>2013-12-05T13:07:59.000Z</time>
      </trkpt>
      <trkpt lat="48.43476" lon="2.63949">
        <ele>119</ele>
        <time>2013-12-05T13:08:04.000Z</time>
      </trkpt>
      <trkpt lat="48.43476" lon="2.63944">
        <ele>119.40000152588</ele>
        <time>2013-12-05T13:08:05.000Z</time>
      </trkpt>
      <trkpt lat="48.43475" lon="2.63925">
        <ele>121.59999847412</ele>
        <time>2013-12-05T13:08:10.000Z</time>
      </trkpt>
      <trkpt lat="48.43475" lon="2.63921">
        <ele>122</ele>
        <time>2013-12-05T13:08:11.000Z</time>
      </trkpt>
      <trkpt lat="48.43478" lon="2.63908">
        <ele>123</ele>
        <time>2013-12-05T13:08:15.000Z</time>
      </trkpt>
      <trkpt lat="48.43477" lon="2.63901">
        <ele>123.19999694824</ele>
        <time>2013-12-05T13:08:17.000Z</time>
      </trkpt>
      <trkpt lat="48.43472" lon="2.63884">
        <ele>123.40000152588</ele>
        <time>2013-12-05T13:08:22.000Z</time>
      </trkpt>
      <trkpt lat="48.43472" lon="2.63881">
        <ele>123.40000152588</ele>
        <time>2013-12-05T13:08:23.000Z</time>
      </trkpt>
      <trkpt lat="48.43471" lon="2.63873">
        <ele>123.59999847412</ele>
        <time>2013-12-05T13:08:25.000Z</time>
      </trkpt>
      <trkpt lat="48.43473" lon="2.63867">
        <ele>124</ele>
        <time>2013-12-05T13:08:27.000Z</time>
      </trkpt>
      <trkpt lat="48.43474" lon="2.63855">
        <ele>124.40000152588</ele>
        <time>2013-12-05T13:08:31.000Z</time>
      </trkpt>
      <trkpt lat="48.43473" lon="2.63852">
        <ele>124.40000152588</ele>
        <time>2013-12-05T13:08:32.000Z</time>
      </trkpt>
      <trkpt lat="48.43473" lon="2.63847">
        <ele>124.59999847412</ele>
        <time>2013-12-05T13:08:33.000Z</time>
      </trkpt>
      <trkpt lat="48.43472" lon="2.63838">
        <ele>124.80000305176</ele>
        <time>2013-12-05T13:08:37.000Z</time>
      </trkpt>
      <trkpt lat="48.4347" lon="2.63813">
        <ele>125.59999847412</ele>
        <time>2013-12-05T13:08:43.000Z</time>
      </trkpt>
      <trkpt lat="48.43468" lon="2.63802">
        <ele>125.80000305176</ele>
        <time>2013-12-05T13:08:45.000Z</time>
      </trkpt>
      <trkpt lat="48.43467" lon="2.63788">
        <ele>126.19999694824</ele>
        <time>2013-12-05T13:08:51.000Z</time>
      </trkpt>
      <trkpt lat="48.43468" lon="2.63787">
        <ele>126.19999694824</ele>
        <time>2013-12-05T13:08:52.000Z</time>
      </trkpt>
      <trkpt lat="48.43468" lon="2.63782">
        <ele>126.40000152588</ele>
        <time>2013-12-05T13:08:56.000Z</time>
      </trkpt>
      <trkpt lat="48.43468" lon="2.63775">
        <ele>126.59999847412</ele>
        <time>2013-12-05T13:09:01.000Z</time>
      </trkpt>
      <trkpt lat="48.43468" lon="2.6377">
        <ele>126.80000305176</ele>
        <time>2013-12-05T13:09:10.000Z</time>
      </trkpt>
      <trkpt lat="48.43463" lon="2.63769">
        <ele>126.59999847412</ele>
        <time>2013-12-05T13:09:16.000Z</time>
      </trkpt>
      <trkpt lat="48.43463" lon="2.63757">
        <ele>127</ele>
        <time>2013-12-05T13:09:19.000Z</time>
      </trkpt>
      <trkpt lat="48.43463" lon="2.63735">
        <ele>127.59999847412</ele>
        <time>2013-12-05T13:09:25.000Z</time>
      </trkpt>
      <trkpt lat="48.43464" lon="2.6372">
        <ele>128</ele>
        <time>2013-12-05T13:09:30.000Z</time>
      </trkpt>
      <trkpt lat="48.43454" lon="2.63719">
        <ele>127.80000305176</ele>
        <time>2013-12-05T13:09:36.000Z</time>
      </trkpt>
      <trkpt lat="48.43449" lon="2.63712">
        <ele>127.80000305176</ele>
        <time>2013-12-05T13:09:40.000Z</time>
      </trkpt>
      <trkpt lat="48.43443" lon="2.63713">
        <ele>127.59999847412</ele>
        <time>2013-12-05T13:09:43.000Z</time>
      </trkpt>
      <trkpt lat="48.4344" lon="2.6371">
        <ele>127.59999847412</ele>
        <time>2013-12-05T13:09:46.000Z</time>
      </trkpt>
      <trkpt lat="48.43434" lon="2.63707">
        <ele>127.59999847412</ele>
        <time>2013-12-05T13:09:50.000Z</time>
      </trkpt>
      <trkpt lat="48.43432" lon="2.63706">
        <ele>127.59999847412</ele>
        <time>2013-12-05T13:09:51.000Z</time>
      </trkpt>
      <trkpt lat="48.43432" lon="2.63704">
        <ele>127.59999847412</ele>
        <time>2013-12-05T13:09:53.000Z</time>
      </trkpt>
      <trkpt lat="48.43429" lon="2.63702">
        <ele>127.59999847412</ele>
        <time>2013-12-05T13:09:55.000Z</time>
      </trkpt>
      <trkpt lat="48.43421" lon="2.63697">
        <ele>127.59999847412</ele>
        <time>2013-12-05T13:09:59.000Z</time>
      </trkpt>
      <trkpt lat="48.43418" lon="2.6369">
        <ele>128</ele>
        <time>2013-12-05T13:10:03.000Z</time>
      </trkpt>
      <trkpt lat="48.43415" lon="2.63686">
        <ele>128</ele>
        <time>2013-12-05T13:10:05.000Z</time>
      </trkpt>
      <trkpt lat="48.43406" lon="2.63679">
        <ele>127.59999847412</ele>
        <time>2013-12-05T13:10:10.000Z</time>
      </trkpt>
      <trkpt lat="48.43404" lon="2.63677">
        <ele>127.59999847412</ele>
        <time>2013-12-05T13:10:11.000Z</time>
      </trkpt>
      <trkpt lat="48.43399" lon="2.63682">
        <ele>127</ele>
        <time>2013-12-05T13:10:14.000Z</time>
      </trkpt>
      <trkpt lat="48.43391" lon="2.63677">
        <ele>126.80000305176</ele>
        <time>2013-12-05T13:10:19.000Z</time>
      </trkpt>
      <trkpt lat="48.4339" lon="2.63676">
        <ele>126.80000305176</ele>
        <time>2013-12-05T13:10:20.000Z</time>
      </trkpt>
      <trkpt lat="48.43388" lon="2.63671">
        <ele>127</ele>
        <time>2013-12-05T13:10:22.000Z</time>
      </trkpt>
      <trkpt lat="48.43384" lon="2.63669">
        <ele>127</ele>
        <time>2013-12-05T13:10:25.000Z</time>
      </trkpt>
      <trkpt lat="48.43379" lon="2.63666">
        <ele>126.59999847412</ele>
        <time>2013-12-05T13:10:28.000Z</time>
      </trkpt>
      <trkpt lat="48.43373" lon="2.63659">
        <ele>126</ele>
        <time>2013-12-05T13:10:32.000Z</time>
      </trkpt>
      <trkpt lat="48.43368" lon="2.63662">
        <ele>125.80000305176</ele>
        <time>2013-12-05T13:10:36.000Z</time>
      </trkpt>
      <trkpt lat="48.43361" lon="2.63659">
        <ele>125.40000152588</ele>
        <time>2013-12-05T13:10:39.000Z</time>
      </trkpt>
      <trkpt lat="48.43354" lon="2.63651">
        <ele>124.80000305176</ele>
        <time>2013-12-05T13:10:43.000Z</time>
      </trkpt>
      <trkpt lat="48.43351" lon="2.63657">
        <ele>124.80000305176</ele>
        <time>2013-12-05T13:10:46.000Z</time>
      </trkpt>
      <trkpt lat="48.43347" lon="2.63654">
        <ele>124.59999847412</ele>
        <time>2013-12-05T13:10:50.000Z</time>
      </trkpt>
      <trkpt lat="48.43343" lon="2.6365">
        <ele>124.19999694824</ele>
        <time>2013-12-05T13:10:55.000Z</time>
      </trkpt>
      <trkpt lat="48.43339" lon="2.63641">
        <ele>124</ele>
        <time>2013-12-05T13:10:59.000Z</time>
      </trkpt>
      <trkpt lat="48.43337" lon="2.6364">
        <ele>123.80000305176</ele>
        <time>2013-12-05T13:11:00.000Z</time>
      </trkpt>
      <trkpt lat="48.43333" lon="2.63637">
        <ele>123.59999847412</ele>
        <time>2013-12-05T13:11:03.000Z</time>
      </trkpt>
      <trkpt lat="48.43327" lon="2.63637">
        <ele>123.59999847412</ele>
        <time>2013-12-05T13:11:07.000Z</time>
      </trkpt>
      <trkpt lat="48.43325" lon="2.63635">
        <ele>123.59999847412</ele>
        <time>2013-12-05T13:11:09.000Z</time>
      </trkpt>
      <trkpt lat="48.43322" lon="2.63627">
        <ele>123.40000152588</ele>
        <time>2013-12-05T13:11:13.000Z</time>
      </trkpt>
      <trkpt lat="48.43306" lon="2.63602">
        <ele>124</ele>
        <time>2013-12-05T13:11:23.000Z</time>
      </trkpt>
      <trkpt lat="48.43303" lon="2.63602">
        <ele>124</ele>
        <time>2013-12-05T13:11:24.000Z</time>
      </trkpt>
      <trkpt lat="48.43301" lon="2.63601">
        <ele>124</ele>
        <time>2013-12-05T13:11:25.000Z</time>
      </trkpt>
      <trkpt lat="48.43293" lon="2.63613">
        <ele>124</ele>
        <time>2013-12-05T13:11:31.000Z</time>
      </trkpt>
      <trkpt lat="48.43286" lon="2.63604">
        <ele>124.40000152588</ele>
        <time>2013-12-05T13:11:34.000Z</time>
      </trkpt>
      <trkpt lat="48.43285" lon="2.63593">
        <ele>124.80000305176</ele>
        <time>2013-12-05T13:11:38.000Z</time>
      </trkpt>
      <trkpt lat="48.43285" lon="2.63582">
        <ele>125.19999694824</ele>
        <time>2013-12-05T13:11:41.000Z</time>
      </trkpt>
      <trkpt lat="48.43285" lon="2.63582">
        <ele>125.19999694824</ele>
        <time>2013-12-05T13:11:42.000Z</time>
      </trkpt>
      <trkpt lat="48.43285" lon="2.63581">
        <ele>125.19999694824</ele>
        <time>2013-12-05T13:11:43.000Z</time>
      </trkpt>
      <trkpt lat="48.43286" lon="2.63579">
        <ele>125.19999694824</ele>
        <time>2013-12-05T13:11:45.000Z</time>
      </trkpt>
      <trkpt lat="48.4328" lon="2.63576">
        <ele>125.40000152588</ele>
        <time>2013-12-05T13:11:49.000Z</time>
      </trkpt>
      <trkpt lat="48.43279" lon="2.63574">
        <ele>125.40000152588</ele>
        <time>2013-12-05T13:11:50.000Z</time>
      </trkpt>
      <trkpt lat="48.43281" lon="2.63574">
        <ele>125.19999694824</ele>
        <time>2013-12-05T13:11:52.000Z</time>
      </trkpt>
      <trkpt lat="48.43285" lon="2.63571">
        <ele>125</ele>
        <time>2013-12-05T13:11:56.000Z</time>
      </trkpt>
      <trkpt lat="48.43284" lon="2.63564">
        <ele>124.59999847412</ele>
        <time>2013-12-05T13:11:59.000Z</time>
      </trkpt>
      <trkpt lat="48.43283" lon="2.6356">
        <ele>124.59999847412</ele>
        <time>2013-12-05T13:12:01.000Z</time>
      </trkpt>
      <trkpt lat="48.43282" lon="2.63559">
        <ele>124.59999847412</ele>
        <time>2013-12-05T13:12:02.000Z</time>
      </trkpt>
      <trkpt lat="48.43279" lon="2.63554">
        <ele>124.80000305176</ele>
        <time>2013-12-05T13:12:07.000Z</time>
      </trkpt>
      <trkpt lat="48.43273" lon="2.63554">
        <ele>125.19999694824</ele>
        <time>2013-12-05T13:12:12.000Z</time>
      </trkpt>
      <trkpt lat="48.43268" lon="2.63554">
        <ele>125.59999847412</ele>
        <time>2013-12-05T13:12:16.000Z</time>
      </trkpt>
      <trkpt lat="48.43268" lon="2.63554">
        <ele>125.59999847412</ele>
        <time>2013-12-05T13:12:17.000Z</time>
      </trkpt>
      <trkpt lat="48.43267" lon="2.63554">
        <ele>125.59999847412</ele>
        <time>2013-12-05T13:12:18.000Z</time>
      </trkpt>
      <trkpt lat="48.43261" lon="2.63557">
        <ele>126.19999694824</ele>
        <time>2013-12-05T13:12:21.000Z</time>
      </trkpt>
      <trkpt lat="48.43253" lon="2.63554">
        <ele>126.80000305176</ele>
        <time>2013-12-05T13:12:24.000Z</time>
      </trkpt>
      <trkpt lat="48.43249" lon="2.63557">
        <ele>127</ele>
        <time>2013-12-05T13:12:26.000Z</time>
      </trkpt>
      <trkpt lat="48.43237" lon="2.6355">
        <ele>128</ele>
        <time>2013-12-05T13:12:32.000Z</time>
      </trkpt>
      <trkpt lat="48.43227" lon="2.63561">
        <ele>128.80000305176</ele>
        <time>2013-12-05T13:12:42.000Z</time>
      </trkpt>
      <trkpt lat="48.43225" lon="2.63562">
        <ele>129</ele>
        <time>2013-12-05T13:12:43.000Z</time>
      </trkpt>
      <trkpt lat="48.43213" lon="2.63573">
        <ele>129.80000305176</ele>
        <time>2013-12-05T13:12:48.000Z</time>
      </trkpt>
      <trkpt lat="48.43204" lon="2.63586">
        <ele>130</ele>
        <time>2013-12-05T13:12:53.000Z</time>
      </trkpt>
      <trkpt lat="48.43201" lon="2.63592">
        <ele>129.80000305176</ele>
        <time>2013-12-05T13:12:56.000Z</time>
      </trkpt>
      <trkpt lat="48.43199" lon="2.63595">
        <ele>129.80000305176</ele>
        <time>2013-12-05T13:12:58.000Z</time>
      </trkpt>
      <trkpt lat="48.43197" lon="2.63599">
        <ele>129.60000610352</ele>
        <time>2013-12-05T13:13:02.000Z</time>
      </trkpt>
      <trkpt lat="48.43196" lon="2.63603">
        <ele>129.39999389648</ele>
        <time>2013-12-05T13:13:05.000Z</time>
      </trkpt>
      <trkpt lat="48.43196" lon="2.63604">
        <ele>129.39999389648</ele>
        <time>2013-12-05T13:13:07.000Z</time>
      </trkpt>
      <trkpt lat="48.4319" lon="2.63613">
        <ele>129</ele>
        <time>2013-12-05T13:13:12.000Z</time>
      </trkpt>
      <trkpt lat="48.43177" lon="2.63616">
        <ele>129.80000305176</ele>
        <time>2013-12-05T13:13:18.000Z</time>
      </trkpt>
      <trkpt lat="48.43158" lon="2.63612">
        <ele>131.60000610352</ele>
        <time>2013-12-05T13:13:27.000Z</time>
      </trkpt>
      <trkpt lat="48.43153" lon="2.63605">
        <ele>132.39999389648</ele>
        <time>2013-12-05T13:13:31.000Z</time>
      </trkpt>
      <trkpt lat="48.43151" lon="2.63602">
        <ele>132.60000610352</ele>
        <time>2013-12-05T13:13:32.000Z</time>
      </trkpt>
      <trkpt lat="48.43149" lon="2.636">
        <ele>133</ele>
        <time>2013-12-05T13:13:33.000Z</time>
      </trkpt>
      <trkpt lat="48.43146" lon="2.63593">
        <ele>133.60000610352</ele>
        <time>2013-12-05T13:13:36.000Z</time>
      </trkpt>
      <trkpt lat="48.43145" lon="2.63577">
        <ele>134.39999389648</ele>
        <time>2013-12-05T13:13:40.000Z</time>
      </trkpt>
      <trkpt lat="48.43148" lon="2.63544">
        <ele>134.39999389648</ele>
        <time>2013-12-05T13:13:47.000Z</time>
      </trkpt>
      <trkpt lat="48.43149" lon="2.63528">
        <ele>134.60000610352</ele>
        <time>2013-12-05T13:13:51.000Z</time>
      </trkpt>
      <trkpt lat="48.43145" lon="2.63512">
        <ele>135</ele>
        <time>2013-12-05T13:13:55.000Z</time>
      </trkpt>
      <trkpt lat="48.43142" lon="2.63494">
        <ele>135.19999694824</ele>
        <time>2013-12-05T13:14:00.000Z</time>
      </trkpt>
      <trkpt lat="48.43139" lon="2.63476">
        <ele>135.60000610352</ele>
        <time>2013-12-05T13:14:05.000Z</time>
      </trkpt>
      <trkpt lat="48.4314" lon="2.63472">
        <ele>135.60000610352</ele>
        <time>2013-12-05T13:14:06.000Z</time>
      </trkpt>
      <trkpt lat="48.43143" lon="2.63456">
        <ele>135.60000610352</ele>
        <time>2013-12-05T13:14:10.000Z</time>
      </trkpt>
      <trkpt lat="48.43148" lon="2.63447">
        <ele>135.60000610352</ele>
        <time>2013-12-05T13:14:13.000Z</time>
      </trkpt>
      <trkpt lat="48.43162" lon="2.63425">
        <ele>135.19999694824</ele>
        <time>2013-12-05T13:14:20.000Z</time>
      </trkpt>
      <trkpt lat="48.43164" lon="2.63412">
        <ele>135.19999694824</ele>
        <time>2013-12-05T13:14:23.000Z</time>
      </trkpt>
      <trkpt lat="48.43167" lon="2.63405">
        <ele>135.19999694824</ele>
        <time>2013-12-05T13:14:25.000Z</time>
      </trkpt>
      <trkpt lat="48.43178" lon="2.63403">
        <ele>134.60000610352</ele>
        <time>2013-12-05T13:14:29.000Z</time>
      </trkpt>
      <trkpt lat="48.43194" lon="2.63411">
        <ele>133.39999389648</ele>
        <time>2013-12-05T13:14:35.000Z</time>
      </trkpt>
      <trkpt lat="48.43197" lon="2.63411">
        <ele>133.19999694824</ele>
        <time>2013-12-05T13:14:36.000Z</time>
      </trkpt>
      <trkpt lat="48.43201" lon="2.63413">
        <ele>133</ele>
        <time>2013-12-05T13:14:38.000Z</time>
      </trkpt>
      <trkpt lat="48.4321" lon="2.63417">
        <ele>132.39999389648</ele>
        <time>2013-12-05T13:14:41.000Z</time>
      </trkpt>
      <trkpt lat="48.43211" lon="2.63418">
        <ele>132.39999389648</ele>
        <time>2013-12-05T13:14:42.000Z</time>
      </trkpt>
      <trkpt lat="48.43213" lon="2.6342">
        <ele>132.19999694824</ele>
        <time>2013-12-05T13:14:43.000Z</time>
      </trkpt>
      <trkpt lat="48.43215" lon="2.63422">
        <ele>132</ele>
        <time>2013-12-05T13:14:44.000Z</time>
      </trkpt>
      <trkpt lat="48.43213" lon="2.63429">
        <ele>132</ele>
        <time>2013-12-05T13:14:48.000Z</time>
      </trkpt>
      <trkpt lat="48.4321" lon="2.63431">
        <ele>132</ele>
        <time>2013-12-05T13:14:53.000Z</time>
      </trkpt>
      <trkpt lat="48.4321" lon="2.63443">
        <ele>131.80000305176</ele>
        <time>2013-12-05T13:14:57.000Z</time>
      </trkpt>
      <trkpt lat="48.4321" lon="2.63448">
        <ele>131.60000610352</ele>
        <time>2013-12-05T13:14:59.000Z</time>
      </trkpt>
      <trkpt lat="48.43214" lon="2.63459">
        <ele>131</ele>
        <time>2013-12-05T13:15:04.000Z</time>
      </trkpt>
      <trkpt lat="48.43223" lon="2.6347">
        <ele>130</ele>
        <time>2013-12-05T13:15:08.000Z</time>
      </trkpt>
      <trkpt lat="48.43234" lon="2.63476">
        <ele>129</ele>
        <time>2013-12-05T13:15:12.000Z</time>
      </trkpt>
      <trkpt lat="48.43237" lon="2.63474">
        <ele>129</ele>
        <time>2013-12-05T13:15:13.000Z</time>
      </trkpt>
      <trkpt lat="48.43242" lon="2.63467">
        <ele>128.80000305176</ele>
        <time>2013-12-05T13:15:16.000Z</time>
      </trkpt>
      <trkpt lat="48.43243" lon="2.63469">
        <ele>128.60000610352</ele>
        <time>2013-12-05T13:15:17.000Z</time>
      </trkpt>
      <trkpt lat="48.43244" lon="2.63473">
        <ele>128.39999389648</ele>
        <time>2013-12-05T13:15:18.000Z</time>
      </trkpt>
      <trkpt lat="48.43246" lon="2.63479">
        <ele>128</ele>
        <time>2013-12-05T13:15:19.000Z</time>
      </trkpt>
      <trkpt lat="48.43255" lon="2.63484">
        <ele>127</ele>
        <time>2013-12-05T13:15:24.000Z</time>
      </trkpt>
      <trkpt lat="48.43265" lon="2.63486">
        <ele>125.40000152588</ele>
        <time>2013-12-05T13:15:28.000Z</time>
      </trkpt>
      <trkpt lat="48.43267" lon="2.63486">
        <ele>125</ele>
        <time>2013-12-05T13:15:29.000Z</time>
      </trkpt>
      <trkpt lat="48.43282" lon="2.63489">
        <ele>123</ele>
        <time>2013-12-05T13:15:35.000Z</time>
      </trkpt>
      <trkpt lat="48.43293" lon="2.63493">
        <ele>121.40000152588</ele>
        <time>2013-12-05T13:15:39.000Z</time>
      </trkpt>
      <trkpt lat="48.43296" lon="2.63495">
        <ele>121</ele>
        <time>2013-12-05T13:15:40.000Z</time>
      </trkpt>
      <trkpt lat="48.43304" lon="2.63492">
        <ele>120</ele>
        <time>2013-12-05T13:15:43.000Z</time>
      </trkpt>
      <trkpt lat="48.43313" lon="2.63492">
        <ele>118.80000305176</ele>
        <time>2013-12-05T13:15:47.000Z</time>
      </trkpt>
      <trkpt lat="48.43321" lon="2.63493">
        <ele>117.80000305176</ele>
        <time>2013-12-05T13:15:49.000Z</time>
      </trkpt>
      <trkpt lat="48.43331" lon="2.63492">
        <ele>116.40000152588</ele>
        <time>2013-12-05T13:15:52.000Z</time>
      </trkpt>
      <trkpt lat="48.43347" lon="2.63473">
        <ele>115.40000152588</ele>
        <time>2013-12-05T13:15:59.000Z</time>
      </trkpt>
      <trkpt lat="48.43348" lon="2.63468">
        <ele>115.40000152588</ele>
        <time>2013-12-05T13:16:00.000Z</time>
      </trkpt>
      <trkpt lat="48.43354" lon="2.63461">
        <ele>115</ele>
        <time>2013-12-05T13:16:03.000Z</time>
      </trkpt>
      <trkpt lat="48.43363" lon="2.63442">
        <ele>114</ele>
        <time>2013-12-05T13:16:08.000Z</time>
      </trkpt>
      <trkpt lat="48.43372" lon="2.63424">
        <ele>112.59999847412</ele>
        <time>2013-12-05T13:16:13.000Z</time>
      </trkpt>
      <trkpt lat="48.43375" lon="2.63415">
        <ele>112</ele>
        <time>2013-12-05T13:16:15.000Z</time>
      </trkpt>
      <trkpt lat="48.4339" lon="2.63404">
        <ele>110.40000152588</ele>
        <time>2013-12-05T13:16:20.000Z</time>
      </trkpt>
      <trkpt lat="48.43404" lon="2.63394">
        <ele>108.80000305176</ele>
        <time>2013-12-05T13:16:24.000Z</time>
      </trkpt>
      <trkpt lat="48.43409" lon="2.63392">
        <ele>108.19999694824</ele>
        <time>2013-12-05T13:16:26.000Z</time>
      </trkpt>
      <trkpt lat="48.43423" lon="2.63392">
        <ele>107.80000305176</ele>
        <time>2013-12-05T13:16:30.000Z</time>
      </trkpt>
      <trkpt lat="48.43439" lon="2.6338">
        <ele>108.40000152588</ele>
        <time>2013-12-05T13:16:35.000Z</time>
      </trkpt>
      <trkpt lat="48.43441" lon="2.63379">
        <ele>108.40000152588</ele>
        <time>2013-12-05T13:16:36.000Z</time>
      </trkpt>
      <trkpt lat="48.43444" lon="2.63376">
        <ele>108.40000152588</ele>
        <time>2013-12-05T13:16:37.000Z</time>
      </trkpt>
      <trkpt lat="48.43446" lon="2.63353">
        <ele>107.40000152588</ele>
        <time>2013-12-05T13:16:41.000Z</time>
      </trkpt>
      <trkpt lat="48.43446" lon="2.6335">
        <ele>107.19999694824</ele>
        <time>2013-12-05T13:16:42.000Z</time>
      </trkpt>
      <trkpt lat="48.43449" lon="2.63345">
        <ele>107</ele>
        <time>2013-12-05T13:16:43.000Z</time>
      </trkpt>
      <trkpt lat="48.43453" lon="2.6334">
        <ele>106.80000305176</ele>
        <time>2013-12-05T13:16:45.000Z</time>
      </trkpt>
      <trkpt lat="48.43464" lon="2.63324">
        <ele>106.40000152588</ele>
        <time>2013-12-05T13:16:50.000Z</time>
      </trkpt>
      <trkpt lat="48.43469" lon="2.63306">
        <ele>106</ele>
        <time>2013-12-05T13:16:54.000Z</time>
      </trkpt>
      <trkpt lat="48.43469" lon="2.633">
        <ele>105.80000305176</ele>
        <time>2013-12-05T13:16:55.000Z</time>
      </trkpt>
      <trkpt lat="48.43472" lon="2.63279">
        <ele>105.19999694824</ele>
        <time>2013-12-05T13:17:00.000Z</time>
      </trkpt>
      <trkpt lat="48.43482" lon="2.63259">
        <ele>104.19999694824</ele>
        <time>2013-12-05T13:17:05.000Z</time>
      </trkpt>
      <trkpt lat="48.43486" lon="2.63239">
        <ele>103.80000305176</ele>
        <time>2013-12-05T13:17:09.000Z</time>
      </trkpt>
      <trkpt lat="48.43491" lon="2.6322">
        <ele>103.80000305176</ele>
        <time>2013-12-05T13:17:13.000Z</time>
      </trkpt>
      <trkpt lat="48.43491" lon="2.63207">
        <ele>104</ele>
        <time>2013-12-05T13:17:16.000Z</time>
      </trkpt>
      <trkpt lat="48.43504" lon="2.63187">
        <ele>104.40000152588</ele>
        <time>2013-12-05T13:17:21.000Z</time>
      </trkpt>
      <trkpt lat="48.43508" lon="2.63162">
        <ele>105.19999694824</ele>
        <time>2013-12-05T13:17:27.000Z</time>
      </trkpt>
      <trkpt lat="48.43516" lon="2.63147">
        <ele>106.40000152588</ele>
        <time>2013-12-05T13:17:31.000Z</time>
      </trkpt>
      <trkpt lat="48.43518" lon="2.63144">
        <ele>106.59999847412</ele>
        <time>2013-12-05T13:17:32.000Z</time>
      </trkpt>
      <trkpt lat="48.4352" lon="2.63129">
        <ele>106.59999847412</ele>
        <time>2013-12-05T13:17:36.000Z</time>
      </trkpt>
      <trkpt lat="48.43522" lon="2.6312">
        <ele>106.80000305176</ele>
        <time>2013-12-05T13:17:38.000Z</time>
      </trkpt>
      <trkpt lat="48.43524" lon="2.63104">
        <ele>106.80000305176</ele>
        <time>2013-12-05T13:17:42.000Z</time>
      </trkpt>
      <trkpt lat="48.43526" lon="2.63083">
        <ele>106.59999847412</ele>
        <time>2013-12-05T13:17:47.000Z</time>
      </trkpt>
      <trkpt lat="48.43525" lon="2.63079">
        <ele>106.19999694824</ele>
        <time>2013-12-05T13:17:48.000Z</time>
      </trkpt>
      <trkpt lat="48.43521" lon="2.63064">
        <ele>105.19999694824</ele>
        <time>2013-12-05T13:17:52.000Z</time>
      </trkpt>
      <trkpt lat="48.43519" lon="2.63062">
        <ele>105</ele>
        <time>2013-12-05T13:17:53.000Z</time>
      </trkpt>
      <trkpt lat="48.43516" lon="2.63058">
        <ele>104.59999847412</ele>
        <time>2013-12-05T13:17:55.000Z</time>
      </trkpt>
      <trkpt lat="48.43504" lon="2.63049">
        <ele>103.59999847412</ele>
        <time>2013-12-05T13:18:00.000Z</time>
      </trkpt>
      <trkpt lat="48.43487" lon="2.63035">
        <ele>103.40000152588</ele>
        <time>2013-12-05T13:18:07.000Z</time>
      </trkpt>
      <trkpt lat="48.43478" lon="2.63017">
        <ele>103</ele>
        <time>2013-12-05T13:18:12.000Z</time>
      </trkpt>
      <trkpt lat="48.43476" lon="2.63007">
        <ele>102.80000305176</ele>
        <time>2013-12-05T13:18:15.000Z</time>
      </trkpt>
      <trkpt lat="48.43476" lon="2.63005">
        <ele>102.59999847412</ele>
        <time>2013-12-05T13:18:17.000Z</time>
      </trkpt>
      <trkpt lat="48.43473" lon="2.6299">
        <ele>102.19999694824</ele>
        <time>2013-12-05T13:18:24.000Z</time>
      </trkpt>
      <trkpt lat="48.43479" lon="2.62972">
        <ele>101.19999694824</ele>
        <time>2013-12-05T13:18:28.000Z</time>
      </trkpt>
      <trkpt lat="48.43488" lon="2.62952">
        <ele>100</ele>
        <time>2013-12-05T13:18:34.000Z</time>
      </trkpt>
      <trkpt lat="48.4349" lon="2.62948">
        <ele>99.800003051758</ele>
        <time>2013-12-05T13:18:35.000Z</time>
      </trkpt>
      <trkpt lat="48.43501" lon="2.62935">
        <ele>98.599998474121</ele>
        <time>2013-12-05T13:18:39.000Z</time>
      </trkpt>
      <trkpt lat="48.4351" lon="2.62911">
        <ele>98.199996948242</ele>
        <time>2013-12-05T13:18:46.000Z</time>
      </trkpt>
      <trkpt lat="48.43512" lon="2.62907">
        <ele>98.199996948242</ele>
        <time>2013-12-05T13:18:47.000Z</time>
      </trkpt>
      <trkpt lat="48.43519" lon="2.62881">
        <ele>98.400001525879</ele>
        <time>2013-12-05T13:18:53.000Z</time>
      </trkpt>
      <trkpt lat="48.43527" lon="2.6286">
        <ele>98.400001525879</ele>
        <time>2013-12-05T13:18:58.000Z</time>
      </trkpt>
      <trkpt lat="48.43527" lon="2.62856">
        <ele>98.400001525879</ele>
        <time>2013-12-05T13:18:59.000Z</time>
      </trkpt>
      <trkpt lat="48.43533" lon="2.62836">
        <ele>98.400001525879</ele>
        <time>2013-12-05T13:19:04.000Z</time>
      </trkpt>
      <trkpt lat="48.43543" lon="2.62815">
        <ele>98.199996948242</ele>
        <time>2013-12-05T13:19:10.000Z</time>
      </trkpt>
      <trkpt lat="48.43544" lon="2.6281">
        <ele>98.199996948242</ele>
        <time>2013-12-05T13:19:11.000Z</time>
      </trkpt>
      <trkpt lat="48.4355" lon="2.62789">
        <ele>97.800003051758</ele>
        <time>2013-12-05T13:19:15.000Z</time>
      </trkpt>
      <trkpt lat="48.43554" lon="2.62779">
        <ele>97.599998474121</ele>
        <time>2013-12-05T13:19:18.000Z</time>
      </trkpt>
      <trkpt lat="48.43562" lon="2.6276">
        <ele>97.199996948242</ele>
        <time>2013-12-05T13:19:23.000Z</time>
      </trkpt>
      <trkpt lat="48.43567" lon="2.62746">
        <ele>97</ele>
        <time>2013-12-05T13:19:27.000Z</time>
      </trkpt>
      <trkpt lat="48.43577" lon="2.62714">
        <ele>97.400001525879</ele>
        <time>2013-12-05T13:19:34.000Z</time>
      </trkpt>
      <trkpt lat="48.43578" lon="2.62709">
        <ele>97.400001525879</ele>
        <time>2013-12-05T13:19:35.000Z</time>
      </trkpt>
      <trkpt lat="48.43583" lon="2.62687">
        <ele>97.800003051758</ele>
        <time>2013-12-05T13:19:40.000Z</time>
      </trkpt>
      <trkpt lat="48.43588" lon="2.62685">
        <ele>97.800003051758</ele>
        <time>2013-12-05T13:19:41.000Z</time>
      </trkpt>
      <trkpt lat="48.43602" lon="2.62678">
        <ele>97.800003051758</ele>
        <time>2013-12-05T13:19:46.000Z</time>
      </trkpt>
      <trkpt lat="48.43615" lon="2.62673">
        <ele>97.599998474121</ele>
        <time>2013-12-05T13:19:50.000Z</time>
      </trkpt>
      <trkpt lat="48.43617" lon="2.62671">
        <ele>97.599998474121</ele>
        <time>2013-12-05T13:19:51.000Z</time>
      </trkpt>
      <trkpt lat="48.4363" lon="2.62658">
        <ele>97.599998474121</ele>
        <time>2013-12-05T13:19:56.000Z</time>
      </trkpt>
      <trkpt lat="48.43637" lon="2.62642">
        <ele>97.599998474121</ele>
        <time>2013-12-05T13:20:00.000Z</time>
      </trkpt>
      <trkpt lat="48.43645" lon="2.6263">
        <ele>97.599998474121</ele>
        <time>2013-12-05T13:20:03.000Z</time>
      </trkpt>
      <trkpt lat="48.4365" lon="2.62608">
        <ele>98</ele>
        <time>2013-12-05T13:20:08.000Z</time>
      </trkpt>
      <trkpt lat="48.4365" lon="2.62605">
        <ele>98</ele>
        <time>2013-12-05T13:20:09.000Z</time>
      </trkpt>
      <trkpt lat="48.43652" lon="2.62589">
        <ele>98.199996948242</ele>
        <time>2013-12-05T13:20:13.000Z</time>
      </trkpt>
      <trkpt lat="48.43658" lon="2.62566">
        <ele>98.199996948242</ele>
        <time>2013-12-05T13:20:18.000Z</time>
      </trkpt>
      <trkpt lat="48.43664" lon="2.62553">
        <ele>98</ele>
        <time>2013-12-05T13:20:21.000Z</time>
      </trkpt>
      <trkpt lat="48.43665" lon="2.62544">
        <ele>98</ele>
        <time>2013-12-05T13:20:23.000Z</time>
      </trkpt>
      <trkpt lat="48.43669" lon="2.62536">
        <ele>98</ele>
        <time>2013-12-05T13:20:25.000Z</time>
      </trkpt>
      <trkpt lat="48.4367" lon="2.62531">
        <ele>98</ele>
        <time>2013-12-05T13:20:26.000Z</time>
      </trkpt>
      <trkpt lat="48.43678" lon="2.62513">
        <ele>98</ele>
        <time>2013-12-05T13:20:31.000Z</time>
      </trkpt>
      <trkpt lat="48.43679" lon="2.62508">
        <ele>97.800003051758</ele>
        <time>2013-12-05T13:20:32.000Z</time>
      </trkpt>
      <trkpt lat="48.43692" lon="2.62497">
        <ele>97.599998474121</ele>
        <time>2013-12-05T13:20:36.000Z</time>
      </trkpt>
      <trkpt lat="48.43695" lon="2.62489">
        <ele>97.599998474121</ele>
        <time>2013-12-05T13:20:38.000Z</time>
      </trkpt>
      <trkpt lat="48.43699" lon="2.62481">
        <ele>97.599998474121</ele>
        <time>2013-12-05T13:20:40.000Z</time>
      </trkpt>
      <trkpt lat="48.43707" lon="2.62468">
        <ele>97.400001525879</ele>
        <time>2013-12-05T13:20:44.000Z</time>
      </trkpt>
      <trkpt lat="48.4372" lon="2.62457">
        <ele>97</ele>
        <time>2013-12-05T13:20:48.000Z</time>
      </trkpt>
      <trkpt lat="48.43726" lon="2.62453">
        <ele>96.800003051758</ele>
        <time>2013-12-05T13:20:50.000Z</time>
      </trkpt>
      <trkpt lat="48.43748" lon="2.62446">
        <ele>96.400001525879</ele>
        <time>2013-12-05T13:20:56.000Z</time>
      </trkpt>
      <trkpt lat="48.4376" lon="2.6244">
        <ele>96.199996948242</ele>
        <time>2013-12-05T13:21:00.000Z</time>
      </trkpt>
      <trkpt lat="48.43773" lon="2.62432">
        <ele>96</ele>
        <time>2013-12-05T13:21:06.000Z</time>
      </trkpt>
      <trkpt lat="48.43784" lon="2.62424">
        <ele>95.599998474121</ele>
        <time>2013-12-05T13:21:10.000Z</time>
      </trkpt>
      <trkpt lat="48.43797" lon="2.62424">
        <ele>95.599998474121</ele>
        <time>2013-12-05T13:21:15.000Z</time>
      </trkpt>
      <trkpt lat="48.43807" lon="2.62426">
        <ele>95.400001525879</ele>
        <time>2013-12-05T13:21:18.000Z</time>
      </trkpt>
      <trkpt lat="48.43811" lon="2.62425">
        <ele>95.400001525879</ele>
        <time>2013-12-05T13:21:19.000Z</time>
      </trkpt>
      <trkpt lat="48.43823" lon="2.62429">
        <ele>95.199996948242</ele>
        <time>2013-12-05T13:21:23.000Z</time>
      </trkpt>
      <trkpt lat="48.43839" lon="2.62425">
        <ele>95</ele>
        <time>2013-12-05T13:21:30.000Z</time>
      </trkpt>
      <trkpt lat="48.43846" lon="2.62422">
        <ele>95</ele>
        <time>2013-12-05T13:21:32.000Z</time>
      </trkpt>
      <trkpt lat="48.4385" lon="2.62422">
        <ele>95</ele>
        <time>2013-12-05T13:21:34.000Z</time>
      </trkpt>
      <trkpt lat="48.43862" lon="2.62428">
        <ele>95</ele>
        <time>2013-12-05T13:21:39.000Z</time>
      </trkpt>
      <trkpt lat="48.43865" lon="2.6243">
        <ele>95</ele>
        <time>2013-12-05T13:21:40.000Z</time>
      </trkpt>
      <trkpt lat="48.43871" lon="2.62431">
        <ele>95</ele>
        <time>2013-12-05T13:21:42.000Z</time>
      </trkpt>
      <trkpt lat="48.43884" lon="2.62426">
        <ele>95</ele>
        <time>2013-12-05T13:21:47.000Z</time>
      </trkpt>
      <trkpt lat="48.439" lon="2.62433">
        <ele>94.800003051758</ele>
        <time>2013-12-05T13:21:52.000Z</time>
      </trkpt>
      <trkpt lat="48.43913" lon="2.62434">
        <ele>94.800003051758</ele>
        <time>2013-12-05T13:21:56.000Z</time>
      </trkpt>
      <trkpt lat="48.43922" lon="2.62432">
        <ele>95</ele>
        <time>2013-12-05T13:21:59.000Z</time>
      </trkpt>
      <trkpt lat="48.43926" lon="2.62432">
        <ele>95</ele>
        <time>2013-12-05T13:22:00.000Z</time>
      </trkpt>
      <trkpt lat="48.43937" lon="2.62439">
        <ele>95.199996948242</ele>
        <time>2013-12-05T13:22:04.000Z</time>
      </trkpt>
      <trkpt lat="48.4395" lon="2.62445">
        <ele>95.400001525879</ele>
        <time>2013-12-05T13:22:09.000Z</time>
      </trkpt>
      <trkpt lat="48.43963" lon="2.62451">
        <ele>95.599998474121</ele>
        <time>2013-12-05T13:22:13.000Z</time>
      </trkpt>
      <trkpt lat="48.43974" lon="2.62454">
        <ele>96</ele>
        <time>2013-12-05T13:22:17.000Z</time>
      </trkpt>
      <trkpt lat="48.43986" lon="2.62451">
        <ele>96.199996948242</ele>
        <time>2013-12-05T13:22:21.000Z</time>
      </trkpt>
      <trkpt lat="48.43988" lon="2.62451">
        <ele>96.199996948242</ele>
        <time>2013-12-05T13:22:22.000Z</time>
      </trkpt>
      <trkpt lat="48.43993" lon="2.62446">
        <ele>96.400001525879</ele>
        <time>2013-12-05T13:22:28.000Z</time>
      </trkpt>
      <trkpt lat="48.43997" lon="2.62438">
        <ele>96.599998474121</ele>
        <time>2013-12-05T13:22:35.000Z</time>
      </trkpt>
      <trkpt lat="48.43998" lon="2.62438">
        <ele>96.800003051758</ele>
        <time>2013-12-05T13:22:36.000Z</time>
      </trkpt>
      <trkpt lat="48.44002" lon="2.62437">
        <ele>96.599998474121</ele>
        <time>2013-12-05T13:22:42.000Z</time>
      </trkpt>
      <trkpt lat="48.44012" lon="2.6244">
        <ele>96</ele>
        <time>2013-12-05T13:22:52.000Z</time>
      </trkpt>
      <trkpt lat="48.44012" lon="2.6244">
        <ele>96</ele>
        <time>2013-12-05T13:22:53.000Z</time>
      </trkpt>
      <trkpt lat="48.4402" lon="2.62442">
        <ele>95.599998474121</ele>
        <time>2013-12-05T13:23:01.000Z</time>
      </trkpt>
      <trkpt lat="48.44026" lon="2.62443">
        <ele>95.199996948242</ele>
        <time>2013-12-05T13:23:09.000Z</time>
      </trkpt>
      <trkpt lat="48.44029" lon="2.62443">
        <ele>95</ele>
        <time>2013-12-05T13:23:13.000Z</time>
      </trkpt>
      <trkpt lat="48.44029" lon="2.62436">
        <ele>95</ele>
        <time>2013-12-05T13:23:18.000Z</time>
      </trkpt>
      <trkpt lat="48.44033" lon="2.62432">
        <ele>94.800003051758</ele>
        <time>2013-12-05T13:23:22.000Z</time>
      </trkpt>
      <trkpt lat="48.4404" lon="2.62429">
        <ele>94.599998474121</ele>
        <time>2013-12-05T13:23:26.000Z</time>
      </trkpt>
      <trkpt lat="48.44045" lon="2.62427">
        <ele>94.199996948242</ele>
        <time>2013-12-05T13:23:28.000Z</time>
      </trkpt>
      <trkpt lat="48.44063" lon="2.62423">
        <ele>93.199996948242</ele>
        <time>2013-12-05T13:23:33.000Z</time>
      </trkpt>
      <trkpt lat="48.44069" lon="2.6242">
        <ele>92.800003051758</ele>
        <time>2013-12-05T13:23:35.000Z</time>
      </trkpt>
      <trkpt lat="48.44073" lon="2.62412">
        <ele>92.800003051758</ele>
        <time>2013-12-05T13:23:37.000Z</time>
      </trkpt>
      <trkpt lat="48.44079" lon="2.62399">
        <ele>92.800003051758</ele>
        <time>2013-12-05T13:23:40.000Z</time>
      </trkpt>
      <trkpt lat="48.44081" lon="2.62391">
        <ele>93</ele>
        <time>2013-12-05T13:23:41.000Z</time>
      </trkpt>
      <trkpt lat="48.44082" lon="2.62384">
        <ele>93.199996948242</ele>
        <time>2013-12-05T13:23:43.000Z</time>
      </trkpt>
      <trkpt lat="48.44089" lon="2.62365">
        <ele>93.800003051758</ele>
        <time>2013-12-05T13:23:47.000Z</time>
      </trkpt>
      <trkpt lat="48.44098" lon="2.62351">
        <ele>94</ele>
        <time>2013-12-05T13:23:50.000Z</time>
      </trkpt>
      <trkpt lat="48.44105" lon="2.62334">
        <ele>94.400001525879</ele>
        <time>2013-12-05T13:23:54.000Z</time>
      </trkpt>
      <trkpt lat="48.44109" lon="2.62311">
        <ele>95</ele>
        <time>2013-12-05T13:23:59.000Z</time>
      </trkpt>
      <trkpt lat="48.44111" lon="2.6229">
        <ele>95.400001525879</ele>
        <time>2013-12-05T13:24:04.000Z</time>
      </trkpt>
      <trkpt lat="48.44111" lon="2.62287">
        <ele>95.400001525879</ele>
        <time>2013-12-05T13:24:05.000Z</time>
      </trkpt>
      <trkpt lat="48.44115" lon="2.62269">
        <ele>95.800003051758</ele>
        <time>2013-12-05T13:24:10.000Z</time>
      </trkpt>
      <trkpt lat="48.44116" lon="2.6226">
        <ele>96</ele>
        <time>2013-12-05T13:24:12.000Z</time>
      </trkpt>
      <trkpt lat="48.4412" lon="2.62245">
        <ele>96.199996948242</ele>
        <time>2013-12-05T13:24:16.000Z</time>
      </trkpt>
      <trkpt lat="48.44121" lon="2.62224">
        <ele>96.400001525879</ele>
        <time>2013-12-05T13:24:22.000Z</time>
      </trkpt>
      <trkpt lat="48.44121" lon="2.62219">
        <ele>96.400001525879</ele>
        <time>2013-12-05T13:24:23.000Z</time>
      </trkpt>
      <trkpt lat="48.44131" lon="2.62208">
        <ele>96.400001525879</ele>
        <time>2013-12-05T13:24:27.000Z</time>
      </trkpt>
      <trkpt lat="48.44132" lon="2.62205">
        <ele>96.400001525879</ele>
        <time>2013-12-05T13:24:28.000Z</time>
      </trkpt>
      <trkpt lat="48.44137" lon="2.62195">
        <ele>96.400001525879</ele>
        <time>2013-12-05T13:24:31.000Z</time>
      </trkpt>
      <trkpt lat="48.44139" lon="2.62178">
        <ele>96.599998474121</ele>
        <time>2013-12-05T13:24:35.000Z</time>
      </trkpt>
      <trkpt lat="48.4414" lon="2.62159">
        <ele>96.599998474121</ele>
        <time>2013-12-05T13:24:40.000Z</time>
      </trkpt>
      <trkpt lat="48.44141" lon="2.62153">
        <ele>96.599998474121</ele>
        <time>2013-12-05T13:24:41.000Z</time>
      </trkpt>
      <trkpt lat="48.44141" lon="2.62135">
        <ele>96.599998474121</ele>
        <time>2013-12-05T13:24:47.000Z</time>
      </trkpt>
      <trkpt lat="48.44141" lon="2.6212">
        <ele>96.599998474121</ele>
        <time>2013-12-05T13:24:51.000Z</time>
      </trkpt>
      <trkpt lat="48.44143" lon="2.62117">
        <ele>96.599998474121</ele>
        <time>2013-12-05T13:24:52.000Z</time>
      </trkpt>
      <trkpt lat="48.44146" lon="2.62102">
        <ele>96.400001525879</ele>
        <time>2013-12-05T13:24:56.000Z</time>
      </trkpt>
      <trkpt lat="48.44149" lon="2.62079">
        <ele>96.400001525879</ele>
        <time>2013-12-05T13:25:01.000Z</time>
      </trkpt>
      <trkpt lat="48.4415" lon="2.62077">
        <ele>96.400001525879</ele>
        <time>2013-12-05T13:25:02.000Z</time>
      </trkpt>
      <trkpt lat="48.44149" lon="2.62073">
        <ele>96.400001525879</ele>
        <time>2013-12-05T13:25:03.000Z</time>
      </trkpt>
      <trkpt lat="48.44153" lon="2.62058">
        <ele>96.400001525879</ele>
        <time>2013-12-05T13:25:06.000Z</time>
      </trkpt>
      <trkpt lat="48.44155" lon="2.62046">
        <ele>96.199996948242</ele>
        <time>2013-12-05T13:25:09.000Z</time>
      </trkpt>
      <trkpt lat="48.44155" lon="2.6203">
        <ele>96.199996948242</ele>
        <time>2013-12-05T13:25:13.000Z</time>
      </trkpt>
      <trkpt lat="48.44158" lon="2.62021">
        <ele>96.199996948242</ele>
        <time>2013-12-05T13:25:16.000Z</time>
      </trkpt>
      <trkpt lat="48.44162" lon="2.62006">
        <ele>96.199996948242</ele>
        <time>2013-12-05T13:25:19.000Z</time>
      </trkpt>
      <trkpt lat="48.44164" lon="2.61971">
        <ele>96</ele>
        <time>2013-12-05T13:25:27.000Z</time>
      </trkpt>
      <trkpt lat="48.44166" lon="2.61968">
        <ele>96</ele>
        <time>2013-12-05T13:25:28.000Z</time>
      </trkpt>
      <trkpt lat="48.44169" lon="2.61946">
        <ele>96</ele>
        <time>2013-12-05T13:25:33.000Z</time>
      </trkpt>
      <trkpt lat="48.44171" lon="2.6193">
        <ele>96</ele>
        <time>2013-12-05T13:25:37.000Z</time>
      </trkpt>
      <trkpt lat="48.44171" lon="2.61913">
        <ele>96</ele>
        <time>2013-12-05T13:25:41.000Z</time>
      </trkpt>
      <trkpt lat="48.44171" lon="2.61905">
        <ele>95.800003051758</ele>
        <time>2013-12-05T13:25:43.000Z</time>
      </trkpt>
      <trkpt lat="48.44175" lon="2.61891">
        <ele>95.800003051758</ele>
        <time>2013-12-05T13:25:46.000Z</time>
      </trkpt>
      <trkpt lat="48.44176" lon="2.61874">
        <ele>95.800003051758</ele>
        <time>2013-12-05T13:25:50.000Z</time>
      </trkpt>
      <trkpt lat="48.44181" lon="2.61852">
        <ele>95.599998474121</ele>
        <time>2013-12-05T13:25:55.000Z</time>
      </trkpt>
      <trkpt lat="48.44183" lon="2.61839">
        <ele>95.400001525879</ele>
        <time>2013-12-05T13:25:58.000Z</time>
      </trkpt>
      <trkpt lat="48.44188" lon="2.61817">
        <ele>95.400001525879</ele>
        <time>2013-12-05T13:26:03.000Z</time>
      </trkpt>
      <trkpt lat="48.44195" lon="2.61799">
        <ele>95.599998474121</ele>
        <time>2013-12-05T13:26:09.000Z</time>
      </trkpt>
      <trkpt lat="48.44197" lon="2.61789">
        <ele>95.599998474121</ele>
        <time>2013-12-05T13:26:14.000Z</time>
      </trkpt>
      <trkpt lat="48.44197" lon="2.61783">
        <ele>95.800003051758</ele>
        <time>2013-12-05T13:26:16.000Z</time>
      </trkpt>
      <trkpt lat="48.44198" lon="2.61772">
        <ele>95.800003051758</ele>
        <time>2013-12-05T13:26:20.000Z</time>
      </trkpt>
      <trkpt lat="48.44199" lon="2.61768">
        <ele>96</ele>
        <time>2013-12-05T13:26:21.000Z</time>
      </trkpt>
      <trkpt lat="48.44198" lon="2.61752">
        <ele>96.199996948242</ele>
        <time>2013-12-05T13:26:25.000Z</time>
      </trkpt>
      <trkpt lat="48.44201" lon="2.61737">
        <ele>96.400001525879</ele>
        <time>2013-12-05T13:26:29.000Z</time>
      </trkpt>
      <trkpt lat="48.44204" lon="2.61732">
        <ele>96.400001525879</ele>
        <time>2013-12-05T13:26:31.000Z</time>
      </trkpt>
      <trkpt lat="48.44202" lon="2.61721">
        <ele>96.400001525879</ele>
        <time>2013-12-05T13:26:34.000Z</time>
      </trkpt>
      <trkpt lat="48.44203" lon="2.61718">
        <ele>96.599998474121</ele>
        <time>2013-12-05T13:26:35.000Z</time>
      </trkpt>
      <trkpt lat="48.44204" lon="2.6171">
        <ele>96.599998474121</ele>
        <time>2013-12-05T13:26:37.000Z</time>
      </trkpt>
      <trkpt lat="48.44206" lon="2.61698">
        <ele>96.599998474121</ele>
        <time>2013-12-05T13:26:40.000Z</time>
      </trkpt>
      <trkpt lat="48.44213" lon="2.6168">
        <ele>96.800003051758</ele>
        <time>2013-12-05T13:26:45.000Z</time>
      </trkpt>
      <trkpt lat="48.44215" lon="2.61663">
        <ele>96.800003051758</ele>
        <time>2013-12-05T13:26:50.000Z</time>
      </trkpt>
      <trkpt lat="48.44217" lon="2.61643">
        <ele>96.599998474121</ele>
        <time>2013-12-05T13:26:55.000Z</time>
      </trkpt>
      <trkpt lat="48.44217" lon="2.61637">
        <ele>96.599998474121</ele>
        <time>2013-12-05T13:26:57.000Z</time>
      </trkpt>
      <trkpt lat="48.4422" lon="2.61616">
        <ele>96.599998474121</ele>
        <time>2013-12-05T13:27:02.000Z</time>
      </trkpt>
      <trkpt lat="48.4422" lon="2.616">
        <ele>96.400001525879</ele>
        <time>2013-12-05T13:27:06.000Z</time>
      </trkpt>
      <trkpt lat="48.44223" lon="2.61581">
        <ele>96.199996948242</ele>
        <time>2013-12-05T13:27:11.000Z</time>
      </trkpt>
      <trkpt lat="48.44224" lon="2.61578">
        <ele>96.199996948242</ele>
        <time>2013-12-05T13:27:12.000Z</time>
      </trkpt>
      <trkpt lat="48.44234" lon="2.61556">
        <ele>95.800003051758</ele>
        <time>2013-12-05T13:27:17.000Z</time>
      </trkpt>
      <trkpt lat="48.44237" lon="2.61551">
        <ele>95.599998474121</ele>
        <time>2013-12-05T13:27:19.000Z</time>
      </trkpt>
      <trkpt lat="48.44239" lon="2.61525">
        <ele>95</ele>
        <time>2013-12-05T13:27:24.000Z</time>
      </trkpt>
      <trkpt lat="48.44245" lon="2.61503">
        <ele>94.400001525879</ele>
        <time>2013-12-05T13:27:29.000Z</time>
      </trkpt>
      <trkpt lat="48.44248" lon="2.61484">
        <ele>94.199996948242</ele>
        <time>2013-12-05T13:27:34.000Z</time>
      </trkpt>
      <trkpt lat="48.44249" lon="2.61479">
        <ele>94</ele>
        <time>2013-12-05T13:27:35.000Z</time>
      </trkpt>
      <trkpt lat="48.44249" lon="2.61474">
        <ele>94</ele>
        <time>2013-12-05T13:27:36.000Z</time>
      </trkpt>
      <trkpt lat="48.44253" lon="2.61457">
        <ele>94</ele>
        <time>2013-12-05T13:27:40.000Z</time>
      </trkpt>
      <trkpt lat="48.44254" lon="2.61449">
        <ele>94</ele>
        <time>2013-12-05T13:27:41.000Z</time>
      </trkpt>
      <trkpt lat="48.44254" lon="2.61442">
        <ele>94</ele>
        <time>2013-12-05T13:27:43.000Z</time>
      </trkpt>
      <trkpt lat="48.44256" lon="2.61427">
        <ele>94</ele>
        <time>2013-12-05T13:27:46.000Z</time>
      </trkpt>
      <trkpt lat="48.44256" lon="2.61423">
        <ele>94</ele>
        <time>2013-12-05T13:27:47.000Z</time>
      </trkpt>
      <trkpt lat="48.44257" lon="2.61392">
        <ele>94.199996948242</ele>
        <time>2013-12-05T13:27:53.000Z</time>
      </trkpt>
      <trkpt lat="48.44261" lon="2.61375">
        <ele>94</ele>
        <time>2013-12-05T13:27:57.000Z</time>
      </trkpt>
      <trkpt lat="48.44262" lon="2.61372">
        <ele>94</ele>
        <time>2013-12-05T13:27:58.000Z</time>
      </trkpt>
      <trkpt lat="48.44268" lon="2.61356">
        <ele>93.800003051758</ele>
        <time>2013-12-05T13:28:02.000Z</time>
      </trkpt>
      <trkpt lat="48.4427" lon="2.6133">
        <ele>93.800003051758</ele>
        <time>2013-12-05T13:28:08.000Z</time>
      </trkpt>
      <trkpt lat="48.44274" lon="2.61314">
        <ele>93.599998474121</ele>
        <time>2013-12-05T13:28:12.000Z</time>
      </trkpt>
      <trkpt lat="48.44278" lon="2.61293">
        <ele>93.400001525879</ele>
        <time>2013-12-05T13:28:17.000Z</time>
      </trkpt>
      <trkpt lat="48.44279" lon="2.61289">
        <ele>93.199996948242</ele>
        <time>2013-12-05T13:28:18.000Z</time>
      </trkpt>
      <trkpt lat="48.4428" lon="2.61273">
        <ele>93.199996948242</ele>
        <time>2013-12-05T13:28:22.000Z</time>
      </trkpt>
      <trkpt lat="48.4428" lon="2.61268">
        <ele>93.199996948242</ele>
        <time>2013-12-05T13:28:24.000Z</time>
      </trkpt>
      <trkpt lat="48.44281" lon="2.61248">
        <ele>93</ele>
        <time>2013-12-05T13:28:29.000Z</time>
      </trkpt>
      <trkpt lat="48.44286" lon="2.61226">
        <ele>92.599998474121</ele>
        <time>2013-12-05T13:28:34.000Z</time>
      </trkpt>
      <trkpt lat="48.44286" lon="2.61208">
        <ele>92.599998474121</ele>
        <time>2013-12-05T13:28:38.000Z</time>
      </trkpt>
      <trkpt lat="48.44286" lon="2.61206">
        <ele>92.599998474121</ele>
        <time>2013-12-05T13:28:39.000Z</time>
      </trkpt>
      <trkpt lat="48.44286" lon="2.61204">
        <ele>92.599998474121</ele>
        <time>2013-12-05T13:28:40.000Z</time>
      </trkpt>
      <trkpt lat="48.44286" lon="2.61195">
        <ele>92.599998474121</ele>
        <time>2013-12-05T13:28:44.000Z</time>
      </trkpt>
      <trkpt lat="48.44282" lon="2.61177">
        <ele>93</ele>
        <time>2013-12-05T13:28:50.000Z</time>
      </trkpt>
      <trkpt lat="48.4428" lon="2.61165">
        <ele>93.400001525879</ele>
        <time>2013-12-05T13:28:53.000Z</time>
      </trkpt>
      <trkpt lat="48.44274" lon="2.61146">
        <ele>93.400001525879</ele>
        <time>2013-12-05T13:28:58.000Z</time>
      </trkpt>
      <trkpt lat="48.44274" lon="2.61142">
        <ele>93.400001525879</ele>
        <time>2013-12-05T13:28:59.000Z</time>
      </trkpt>
      <trkpt lat="48.44272" lon="2.61129">
        <ele>93.199996948242</ele>
        <time>2013-12-05T13:29:02.000Z</time>
      </trkpt>
      <trkpt lat="48.44268" lon="2.61116">
        <ele>93.199996948242</ele>
        <time>2013-12-05T13:29:05.000Z</time>
      </trkpt>
      <trkpt lat="48.44268" lon="2.61113">
        <ele>93.199996948242</ele>
        <time>2013-12-05T13:29:06.000Z</time>
      </trkpt>
      <trkpt lat="48.44263" lon="2.61095">
        <ele>93</ele>
        <time>2013-12-05T13:29:10.000Z</time>
      </trkpt>
      <trkpt lat="48.4426" lon="2.61081">
        <ele>93</ele>
        <time>2013-12-05T13:29:13.000Z</time>
      </trkpt>
      <trkpt lat="48.44257" lon="2.61066">
        <ele>92.599998474121</ele>
        <time>2013-12-05T13:29:17.000Z</time>
      </trkpt>
      <trkpt lat="48.44256" lon="2.61061">
        <ele>92.400001525879</ele>
        <time>2013-12-05T13:29:19.000Z</time>
      </trkpt>
      <trkpt lat="48.44254" lon="2.61045">
        <ele>91.800003051758</ele>
        <time>2013-12-05T13:29:24.000Z</time>
      </trkpt>
      <trkpt lat="48.44249" lon="2.61016">
        <ele>91</ele>
        <time>2013-12-05T13:29:31.000Z</time>
      </trkpt>
      <trkpt lat="48.44243" lon="2.60999">
        <ele>90.800003051758</ele>
        <time>2013-12-05T13:29:35.000Z</time>
      </trkpt>
      <trkpt lat="48.44241" lon="2.60992">
        <ele>90.599998474121</ele>
        <time>2013-12-05T13:29:37.000Z</time>
      </trkpt>
      <trkpt lat="48.44233" lon="2.60976">
        <ele>91</ele>
        <time>2013-12-05T13:29:41.000Z</time>
      </trkpt>
      <trkpt lat="48.44222" lon="2.60951">
        <ele>91</ele>
        <time>2013-12-05T13:29:49.000Z</time>
      </trkpt>
      <trkpt lat="48.44217" lon="2.60937">
        <ele>91</ele>
        <time>2013-12-05T13:29:53.000Z</time>
      </trkpt>
      <trkpt lat="48.44213" lon="2.60924">
        <ele>91</ele>
        <time>2013-12-05T13:29:58.000Z</time>
      </trkpt>
      <trkpt lat="48.44209" lon="2.60918">
        <ele>91</ele>
        <time>2013-12-05T13:30:00.000Z</time>
      </trkpt>
      <trkpt lat="48.44204" lon="2.60913">
        <ele>91.400001525879</ele>
        <time>2013-12-05T13:30:02.000Z</time>
      </trkpt>
      <trkpt lat="48.4419" lon="2.60904">
        <ele>92.199996948242</ele>
        <time>2013-12-05T13:30:08.000Z</time>
      </trkpt>
      <trkpt lat="48.44178" lon="2.60892">
        <ele>92.599998474121</ele>
        <time>2013-12-05T13:30:13.000Z</time>
      </trkpt>
      <trkpt lat="48.44165" lon="2.60888">
        <ele>93.400001525879</ele>
        <time>2013-12-05T13:30:18.000Z</time>
      </trkpt>
      <trkpt lat="48.4415" lon="2.60879">
        <ele>94.199996948242</ele>
        <time>2013-12-05T13:30:23.000Z</time>
      </trkpt>
      <trkpt lat="48.44148" lon="2.60878">
        <ele>94.400001525879</ele>
        <time>2013-12-05T13:30:24.000Z</time>
      </trkpt>
      <trkpt lat="48.44132" lon="2.60873">
        <ele>95.800003051758</ele>
        <time>2013-12-05T13:30:30.000Z</time>
      </trkpt>
      <trkpt lat="48.44119" lon="2.60866">
        <ele>96.599998474121</ele>
        <time>2013-12-05T13:30:34.000Z</time>
      </trkpt>
      <trkpt lat="48.44114" lon="2.60863">
        <ele>97</ele>
        <time>2013-12-05T13:30:36.000Z</time>
      </trkpt>
      <trkpt lat="48.44103" lon="2.60851">
        <ele>97.599998474121</ele>
        <time>2013-12-05T13:30:41.000Z</time>
      </trkpt>
      <trkpt lat="48.44102" lon="2.60848">
        <ele>97.599998474121</ele>
        <time>2013-12-05T13:30:43.000Z</time>
      </trkpt>
      <trkpt lat="48.44097" lon="2.60834">
        <ele>97.599998474121</ele>
        <time>2013-12-05T13:30:49.000Z</time>
      </trkpt>
      <trkpt lat="48.44096" lon="2.60828">
        <ele>97.400001525879</ele>
        <time>2013-12-05T13:30:51.000Z</time>
      </trkpt>
      <trkpt lat="48.44087" lon="2.60807">
        <ele>97.800003051758</ele>
        <time>2013-12-05T13:30:56.000Z</time>
      </trkpt>
      <trkpt lat="48.4408" lon="2.60796">
        <ele>97.599998474121</ele>
        <time>2013-12-05T13:31:00.000Z</time>
      </trkpt>
      <trkpt lat="48.44079" lon="2.60791">
        <ele>97.400001525879</ele>
        <time>2013-12-05T13:31:01.000Z</time>
      </trkpt>
      <trkpt lat="48.4407" lon="2.60773">
        <ele>97</ele>
        <time>2013-12-05T13:31:06.000Z</time>
      </trkpt>
      <trkpt lat="48.44059" lon="2.6076">
        <ele>96.599998474121</ele>
        <time>2013-12-05T13:31:11.000Z</time>
      </trkpt>
      <trkpt lat="48.44048" lon="2.60742">
        <ele>96.400001525879</ele>
        <time>2013-12-05T13:31:16.000Z</time>
      </trkpt>
      <trkpt lat="48.44046" lon="2.6074">
        <ele>96.400001525879</ele>
        <time>2013-12-05T13:31:17.000Z</time>
      </trkpt>
      <trkpt lat="48.44036" lon="2.60728">
        <ele>96.400001525879</ele>
        <time>2013-12-05T13:31:21.000Z</time>
      </trkpt>
      <trkpt lat="48.44032" lon="2.60721">
        <ele>96.400001525879</ele>
        <time>2013-12-05T13:31:24.000Z</time>
      </trkpt>
      <trkpt lat="48.44027" lon="2.60715">
        <ele>96.599998474121</ele>
        <time>2013-12-05T13:31:26.000Z</time>
      </trkpt>
      <trkpt lat="48.44011" lon="2.60689">
        <ele>96.800003051758</ele>
        <time>2013-12-05T13:31:34.000Z</time>
      </trkpt>
      <trkpt lat="48.44001" lon="2.60665">
        <ele>97</ele>
        <time>2013-12-05T13:31:40.000Z</time>
      </trkpt>
      <trkpt lat="48.43994" lon="2.60655">
        <ele>96.800003051758</ele>
        <time>2013-12-05T13:31:44.000Z</time>
      </trkpt>
      <trkpt lat="48.4399" lon="2.60647">
        <ele>96.599998474121</ele>
        <time>2013-12-05T13:31:46.000Z</time>
      </trkpt>
      <trkpt lat="48.43985" lon="2.60642">
        <ele>96.400001525879</ele>
        <time>2013-12-05T13:31:48.000Z</time>
      </trkpt>
      <trkpt lat="48.43982" lon="2.60642">
        <ele>96.400001525879</ele>
        <time>2013-12-05T13:31:49.000Z</time>
      </trkpt>
      <trkpt lat="48.43969" lon="2.60635">
        <ele>96</ele>
        <time>2013-12-05T13:31:54.000Z</time>
      </trkpt>
      <trkpt lat="48.43963" lon="2.6063">
        <ele>95.800003051758</ele>
        <time>2013-12-05T13:31:56.000Z</time>
      </trkpt>
      <trkpt lat="48.43948" lon="2.60625">
        <ele>95.199996948242</ele>
        <time>2013-12-05T13:32:01.000Z</time>
      </trkpt>
      <trkpt lat="48.43947" lon="2.60625">
        <ele>95.199996948242</ele>
        <time>2013-12-05T13:32:02.000Z</time>
      </trkpt>
      <trkpt lat="48.4393" lon="2.6062">
        <ele>94.599998474121</ele>
        <time>2013-12-05T13:32:08.000Z</time>
      </trkpt>
      <trkpt lat="48.43918" lon="2.60621">
        <ele>94.400001525879</ele>
        <time>2013-12-05T13:32:13.000Z</time>
      </trkpt>
      <trkpt lat="48.43912" lon="2.60618">
        <ele>94.400001525879</ele>
        <time>2013-12-05T13:32:15.000Z</time>
      </trkpt>
      <trkpt lat="48.43899" lon="2.60611">
        <ele>94.199996948242</ele>
        <time>2013-12-05T13:32:19.000Z</time>
      </trkpt>
      <trkpt lat="48.43891" lon="2.60609">
        <ele>94.400001525879</ele>
        <time>2013-12-05T13:32:23.000Z</time>
      </trkpt>
      <trkpt lat="48.4389" lon="2.60606">
        <ele>94.199996948242</ele>
        <time>2013-12-05T13:32:27.000Z</time>
      </trkpt>
      <trkpt lat="48.43879" lon="2.60606">
        <ele>94.400001525879</ele>
        <time>2013-12-05T13:32:32.000Z</time>
      </trkpt>
      <trkpt lat="48.43864" lon="2.60608">
        <ele>94.800003051758</ele>
        <time>2013-12-05T13:32:37.000Z</time>
      </trkpt>
      <trkpt lat="48.43847" lon="2.60615">
        <ele>95.199996948242</ele>
        <time>2013-12-05T13:32:44.000Z</time>
      </trkpt>
      <trkpt lat="48.43834" lon="2.6062">
        <ele>95.400001525879</ele>
        <time>2013-12-05T13:32:49.000Z</time>
      </trkpt>
      <trkpt lat="48.4382" lon="2.60623">
        <ele>96.400001525879</ele>
        <time>2013-12-05T13:32:54.000Z</time>
      </trkpt>
      <trkpt lat="48.43807" lon="2.60627">
        <ele>97.400001525879</ele>
        <time>2013-12-05T13:32:59.000Z</time>
      </trkpt>
      <trkpt lat="48.4379" lon="2.60628">
        <ele>98.599998474121</ele>
        <time>2013-12-05T13:33:05.000Z</time>
      </trkpt>
      <trkpt lat="48.43783" lon="2.60632">
        <ele>99.199996948242</ele>
        <time>2013-12-05T13:33:08.000Z</time>
      </trkpt>
      <trkpt lat="48.43773" lon="2.60634">
        <ele>99.800003051758</ele>
        <time>2013-12-05T13:33:12.000Z</time>
      </trkpt>
      <trkpt lat="48.43769" lon="2.60632">
        <ele>100</ele>
        <time>2013-12-05T13:33:13.000Z</time>
      </trkpt>
      <trkpt lat="48.43762" lon="2.60631">
        <ele>100.59999847412</ele>
        <time>2013-12-05T13:33:16.000Z</time>
      </trkpt>
      <trkpt lat="48.4376" lon="2.6063">
        <ele>100.80000305176</ele>
        <time>2013-12-05T13:33:17.000Z</time>
      </trkpt>
      <trkpt lat="48.43757" lon="2.60631">
        <ele>101</ele>
        <time>2013-12-05T13:33:18.000Z</time>
      </trkpt>
      <trkpt lat="48.43745" lon="2.60637">
        <ele>102</ele>
        <time>2013-12-05T13:33:24.000Z</time>
      </trkpt>
      <trkpt lat="48.43738" lon="2.60641">
        <ele>102.80000305176</ele>
        <time>2013-12-05T13:33:27.000Z</time>
      </trkpt>
      <trkpt lat="48.43726" lon="2.60643">
        <ele>104.40000152588</ele>
        <time>2013-12-05T13:33:33.000Z</time>
      </trkpt>
      <trkpt lat="48.43718" lon="2.60647">
        <ele>105.40000152588</ele>
        <time>2013-12-05T13:33:36.000Z</time>
      </trkpt>
      <trkpt lat="48.43708" lon="2.60654">
        <ele>106.59999847412</ele>
        <time>2013-12-05T13:33:41.000Z</time>
      </trkpt>
      <trkpt lat="48.437" lon="2.60659">
        <ele>107.59999847412</ele>
        <time>2013-12-05T13:33:45.000Z</time>
      </trkpt>
      <trkpt lat="48.43692" lon="2.60667">
        <ele>108.59999847412</ele>
        <time>2013-12-05T13:33:49.000Z</time>
      </trkpt>
      <trkpt lat="48.43686" lon="2.6067">
        <ele>109.40000152588</ele>
        <time>2013-12-05T13:33:52.000Z</time>
      </trkpt>
      <trkpt lat="48.4368" lon="2.60678">
        <ele>109.80000305176</ele>
        <time>2013-12-05T13:33:57.000Z</time>
      </trkpt>
      <trkpt lat="48.43678" lon="2.60678">
        <ele>110</ele>
        <time>2013-12-05T13:33:58.000Z</time>
      </trkpt>
      <trkpt lat="48.43675" lon="2.60678">
        <ele>110.40000152588</ele>
        <time>2013-12-05T13:34:01.000Z</time>
      </trkpt>
      <trkpt lat="48.43674" lon="2.60678">
        <ele>110.59999847412</ele>
        <time>2013-12-05T13:34:03.000Z</time>
      </trkpt>
      <trkpt lat="48.4367" lon="2.60678">
        <ele>111.19999694824</ele>
        <time>2013-12-05T13:34:07.000Z</time>
      </trkpt>
      <trkpt lat="48.43664" lon="2.60673">
        <ele>111.80000305176</ele>
        <time>2013-12-05T13:34:13.000Z</time>
      </trkpt>
      <trkpt lat="48.4365" lon="2.60659">
        <ele>111.80000305176</ele>
        <time>2013-12-05T13:34:24.000Z</time>
      </trkpt>
      <trkpt lat="48.43639" lon="2.60653">
        <ele>111.59999847412</ele>
        <time>2013-12-05T13:34:30.000Z</time>
      </trkpt>
      <trkpt lat="48.43635" lon="2.6065">
        <ele>111.59999847412</ele>
        <time>2013-12-05T13:34:35.000Z</time>
      </trkpt>
      <trkpt lat="48.43634" lon="2.60649">
        <ele>111.59999847412</ele>
        <time>2013-12-05T13:34:38.000Z</time>
      </trkpt>
      <trkpt lat="48.43631" lon="2.60653">
        <ele>111.59999847412</ele>
        <time>2013-12-05T13:34:43.000Z</time>
      </trkpt>
      <trkpt lat="48.43627" lon="2.60654">
        <ele>111.59999847412</ele>
        <time>2013-12-05T13:34:52.000Z</time>
      </trkpt>
      <trkpt lat="48.4362" lon="2.60666">
        <ele>112</ele>
        <time>2013-12-05T13:34:58.000Z</time>
      </trkpt>
      <trkpt lat="48.43619" lon="2.60675">
        <ele>112.19999694824</ele>
        <time>2013-12-05T13:35:01.000Z</time>
      </trkpt>
      <trkpt lat="48.43618" lon="2.60678">
        <ele>112.40000152588</ele>
        <time>2013-12-05T13:35:03.000Z</time>
      </trkpt>
      <trkpt lat="48.43619" lon="2.6069">
        <ele>112.80000305176</ele>
        <time>2013-12-05T13:35:07.000Z</time>
      </trkpt>
      <trkpt lat="48.43618" lon="2.60702">
        <ele>113.19999694824</ele>
        <time>2013-12-05T13:35:12.000Z</time>
      </trkpt>
      <trkpt lat="48.43612" lon="2.60711">
        <ele>114</ele>
        <time>2013-12-05T13:35:16.000Z</time>
      </trkpt>
      <trkpt lat="48.4361" lon="2.60717">
        <ele>114.40000152588</ele>
        <time>2013-12-05T13:35:19.000Z</time>
      </trkpt>
      <trkpt lat="48.43605" lon="2.60723">
        <ele>115</ele>
        <time>2013-12-05T13:35:24.000Z</time>
      </trkpt>
      <trkpt lat="48.43599" lon="2.60732">
        <ele>116</ele>
        <time>2013-12-05T13:35:28.000Z</time>
      </trkpt>
      <trkpt lat="48.43595" lon="2.60744">
        <ele>117.19999694824</ele>
        <time>2013-12-05T13:35:33.000Z</time>
      </trkpt>
      <trkpt lat="48.43594" lon="2.60746">
        <ele>117.40000152588</ele>
        <time>2013-12-05T13:35:34.000Z</time>
      </trkpt>
      <trkpt lat="48.43589" lon="2.60755">
        <ele>118.40000152588</ele>
        <time>2013-12-05T13:35:37.000Z</time>
      </trkpt>
      <trkpt lat="48.43581" lon="2.60767">
        <ele>119.19999694824</ele>
        <time>2013-12-05T13:35:41.000Z</time>
      </trkpt>
      <trkpt lat="48.43581" lon="2.6077">
        <ele>119.19999694824</ele>
        <time>2013-12-05T13:35:42.000Z</time>
      </trkpt>
      <trkpt lat="48.43581" lon="2.60773">
        <ele>119.19999694824</ele>
        <time>2013-12-05T13:35:43.000Z</time>
      </trkpt>
      <trkpt lat="48.43578" lon="2.60781">
        <ele>119.19999694824</ele>
        <time>2013-12-05T13:35:45.000Z</time>
      </trkpt>
      <trkpt lat="48.43579" lon="2.60799">
        <ele>119.40000152588</ele>
        <time>2013-12-05T13:35:50.000Z</time>
      </trkpt>
      <trkpt lat="48.4358" lon="2.60801">
        <ele>119.40000152588</ele>
        <time>2013-12-05T13:35:51.000Z</time>
      </trkpt>
      <trkpt lat="48.43578" lon="2.60811">
        <ele>119.40000152588</ele>
        <time>2013-12-05T13:35:56.000Z</time>
      </trkpt>
      <trkpt lat="48.43571" lon="2.60814">
        <ele>119.19999694824</ele>
        <time>2013-12-05T13:36:00.000Z</time>
      </trkpt>
      <trkpt lat="48.43569" lon="2.60815">
        <ele>119.19999694824</ele>
        <time>2013-12-05T13:36:01.000Z</time>
      </trkpt>
      <trkpt lat="48.43568" lon="2.60814">
        <ele>119</ele>
        <time>2013-12-05T13:36:03.000Z</time>
      </trkpt>
      <trkpt lat="48.43562" lon="2.60821">
        <ele>118.80000305176</ele>
        <time>2013-12-05T13:36:07.000Z</time>
      </trkpt>
      <trkpt lat="48.43561" lon="2.60832">
        <ele>118.80000305176</ele>
        <time>2013-12-05T13:36:11.000Z</time>
      </trkpt>
      <trkpt lat="48.43557" lon="2.60836">
        <ele>118.80000305176</ele>
        <time>2013-12-05T13:36:13.000Z</time>
      </trkpt>
      <trkpt lat="48.43552" lon="2.6084">
        <ele>118.80000305176</ele>
        <time>2013-12-05T13:36:16.000Z</time>
      </trkpt>
      <trkpt lat="48.43551" lon="2.60844">
        <ele>118.80000305176</ele>
        <time>2013-12-05T13:36:20.000Z</time>
      </trkpt>
      <trkpt lat="48.4355" lon="2.60852">
        <ele>119</ele>
        <time>2013-12-05T13:36:23.000Z</time>
      </trkpt>
      <trkpt lat="48.4355" lon="2.60856">
        <ele>119</ele>
        <time>2013-12-05T13:36:24.000Z</time>
      </trkpt>
      <trkpt lat="48.43551" lon="2.60858">
        <ele>119.19999694824</ele>
        <time>2013-12-05T13:36:26.000Z</time>
      </trkpt>
      <trkpt lat="48.43549" lon="2.60865">
        <ele>119.19999694824</ele>
        <time>2013-12-05T13:36:30.000Z</time>
      </trkpt>
      <trkpt lat="48.4355" lon="2.60869">
        <ele>119.40000152588</ele>
        <time>2013-12-05T13:36:31.000Z</time>
      </trkpt>
      <trkpt lat="48.43549" lon="2.60874">
        <ele>119.59999847412</ele>
        <time>2013-12-05T13:36:33.000Z</time>
      </trkpt>
      <trkpt lat="48.43547" lon="2.60883">
        <ele>119.80000305176</ele>
        <time>2013-12-05T13:36:36.000Z</time>
      </trkpt>
      <trkpt lat="48.43547" lon="2.60886">
        <ele>119.80000305176</ele>
        <time>2013-12-05T13:36:38.000Z</time>
      </trkpt>
      <trkpt lat="48.43547" lon="2.60894">
        <ele>120</ele>
        <time>2013-12-05T13:36:41.000Z</time>
      </trkpt>
      <trkpt lat="48.43547" lon="2.60899">
        <ele>120.19999694824</ele>
        <time>2013-12-05T13:36:44.000Z</time>
      </trkpt>
      <trkpt lat="48.43548" lon="2.60901">
        <ele>120.19999694824</ele>
        <time>2013-12-05T13:36:46.000Z</time>
      </trkpt>
      <trkpt lat="48.43545" lon="2.60907">
        <ele>120.40000152588</ele>
        <time>2013-12-05T13:36:51.000Z</time>
      </trkpt>
      <trkpt lat="48.43545" lon="2.60909">
        <ele>120.40000152588</ele>
        <time>2013-12-05T13:36:53.000Z</time>
      </trkpt>
      <trkpt lat="48.43539" lon="2.60911">
        <ele>120.19999694824</ele>
        <time>2013-12-05T13:36:57.000Z</time>
      </trkpt>
      <trkpt lat="48.43537" lon="2.60913">
        <ele>120.19999694824</ele>
        <time>2013-12-05T13:36:59.000Z</time>
      </trkpt>
      <trkpt lat="48.43534" lon="2.60915">
        <ele>120.19999694824</ele>
        <time>2013-12-05T13:37:03.000Z</time>
      </trkpt>
      <trkpt lat="48.43533" lon="2.60918">
        <ele>120.19999694824</ele>
        <time>2013-12-05T13:37:05.000Z</time>
      </trkpt>
      <trkpt lat="48.43531" lon="2.60928">
        <ele>120.80000305176</ele>
        <time>2013-12-05T13:37:10.000Z</time>
      </trkpt>
      <trkpt lat="48.43531" lon="2.6093">
        <ele>120.80000305176</ele>
        <time>2013-12-05T13:37:11.000Z</time>
      </trkpt>
      <trkpt lat="48.43532" lon="2.60931">
        <ele>121</ele>
        <time>2013-12-05T13:37:13.000Z</time>
      </trkpt>
      <trkpt lat="48.43531" lon="2.60933">
        <ele>121</ele>
        <time>2013-12-05T13:37:15.000Z</time>
      </trkpt>
      <trkpt lat="48.4353" lon="2.60941">
        <ele>121.40000152588</ele>
        <time>2013-12-05T13:37:20.000Z</time>
      </trkpt>
      <trkpt lat="48.4353" lon="2.60943">
        <ele>121.59999847412</ele>
        <time>2013-12-05T13:37:23.000Z</time>
      </trkpt>
      <trkpt lat="48.43529" lon="2.60947">
        <ele>121.80000305176</ele>
        <time>2013-12-05T13:37:27.000Z</time>
      </trkpt>
      <trkpt lat="48.4353" lon="2.60953">
        <ele>122.19999694824</ele>
        <time>2013-12-05T13:37:33.000Z</time>
      </trkpt>
      <trkpt lat="48.43529" lon="2.60957">
        <ele>122.40000152588</ele>
        <time>2013-12-05T13:37:36.000Z</time>
      </trkpt>
      <trkpt lat="48.43527" lon="2.6096">
        <ele>122.40000152588</ele>
        <time>2013-12-05T13:37:39.000Z</time>
      </trkpt>
      <trkpt lat="48.43527" lon="2.60965">
        <ele>122.59999847412</ele>
        <time>2013-12-05T13:37:43.000Z</time>
      </trkpt>
      <trkpt lat="48.43527" lon="2.60967">
        <ele>122.80000305176</ele>
        <time>2013-12-05T13:37:45.000Z</time>
      </trkpt>
      <trkpt lat="48.43529" lon="2.60973">
        <ele>123.19999694824</ele>
        <time>2013-12-05T13:37:50.000Z</time>
      </trkpt>
      <trkpt lat="48.43531" lon="2.60975">
        <ele>123.40000152588</ele>
        <time>2013-12-05T13:37:52.000Z</time>
      </trkpt>
      <trkpt lat="48.43534" lon="2.60982">
        <ele>123.80000305176</ele>
        <time>2013-12-05T13:37:58.000Z</time>
      </trkpt>
      <trkpt lat="48.43534" lon="2.60983">
        <ele>123.80000305176</ele>
        <time>2013-12-05T13:37:59.000Z</time>
      </trkpt>
      <trkpt lat="48.43531" lon="2.60984">
        <ele>123.80000305176</ele>
        <time>2013-12-05T13:38:02.000Z</time>
      </trkpt>
      <trkpt lat="48.43529" lon="2.60988">
        <ele>124</ele>
        <time>2013-12-05T13:38:04.000Z</time>
      </trkpt>
      <trkpt lat="48.43528" lon="2.60995">
        <ele>124.40000152588</ele>
        <time>2013-12-05T13:38:07.000Z</time>
      </trkpt>
      <trkpt lat="48.43526" lon="2.61">
        <ele>124.59999847412</ele>
        <time>2013-12-05T13:38:12.000Z</time>
      </trkpt>
      <trkpt lat="48.43527" lon="2.61004">
        <ele>124.80000305176</ele>
        <time>2013-12-05T13:38:15.000Z</time>
      </trkpt>
      <trkpt lat="48.43524" lon="2.61014">
        <ele>124.80000305176</ele>
        <time>2013-12-05T13:38:18.000Z</time>
      </trkpt>
      <trkpt lat="48.43523" lon="2.61021">
        <ele>125</ele>
        <time>2013-12-05T13:38:20.000Z</time>
      </trkpt>
      <trkpt lat="48.4352" lon="2.6103">
        <ele>125.19999694824</ele>
        <time>2013-12-05T13:38:25.000Z</time>
      </trkpt>
      <trkpt lat="48.43519" lon="2.61032">
        <ele>125.19999694824</ele>
        <time>2013-12-05T13:38:26.000Z</time>
      </trkpt>
      <trkpt lat="48.43517" lon="2.61038">
        <ele>125.19999694824</ele>
        <time>2013-12-05T13:38:28.000Z</time>
      </trkpt>
      <trkpt lat="48.43519" lon="2.61054">
        <ele>125.59999847412</ele>
        <time>2013-12-05T13:38:34.000Z</time>
      </trkpt>
      <trkpt lat="48.4352" lon="2.61058">
        <ele>125.59999847412</ele>
        <time>2013-12-05T13:38:36.000Z</time>
      </trkpt>
      <trkpt lat="48.43521" lon="2.61063">
        <ele>125.80000305176</ele>
        <time>2013-12-05T13:38:39.000Z</time>
      </trkpt>
      <trkpt lat="48.4352" lon="2.61074">
        <ele>126</ele>
        <time>2013-12-05T13:38:44.000Z</time>
      </trkpt>
      <trkpt lat="48.4352" lon="2.61076">
        <ele>126</ele>
        <time>2013-12-05T13:38:45.000Z</time>
      </trkpt>
      <trkpt lat="48.4352" lon="2.61079">
        <ele>126.19999694824</ele>
        <time>2013-12-05T13:38:46.000Z</time>
      </trkpt>
      <trkpt lat="48.43521" lon="2.61087">
        <ele>126.40000152588</ele>
        <time>2013-12-05T13:38:49.000Z</time>
      </trkpt>
      <trkpt lat="48.43522" lon="2.61088">
        <ele>126.40000152588</ele>
        <time>2013-12-05T13:38:51.000Z</time>
      </trkpt>
      <trkpt lat="48.43524" lon="2.61094">
        <ele>126.59999847412</ele>
        <time>2013-12-05T13:38:55.000Z</time>
      </trkpt>
      <trkpt lat="48.43525" lon="2.61095">
        <ele>126.80000305176</ele>
        <time>2013-12-05T13:38:57.000Z</time>
      </trkpt>
      <trkpt lat="48.43524" lon="2.6111">
        <ele>127</ele>
        <time>2013-12-05T13:39:02.000Z</time>
      </trkpt>
      <trkpt lat="48.43523" lon="2.61113">
        <ele>127</ele>
        <time>2013-12-05T13:39:03.000Z</time>
      </trkpt>
      <trkpt lat="48.43522" lon="2.61116">
        <ele>127</ele>
        <time>2013-12-05T13:39:04.000Z</time>
      </trkpt>
      <trkpt lat="48.43521" lon="2.61126">
        <ele>127.19999694824</ele>
        <time>2013-12-05T13:39:07.000Z</time>
      </trkpt>
      <trkpt lat="48.43521" lon="2.61129">
        <ele>127.19999694824</ele>
        <time>2013-12-05T13:39:08.000Z</time>
      </trkpt>
      <trkpt lat="48.43521" lon="2.61134">
        <ele>127.40000152588</ele>
        <time>2013-12-05T13:39:10.000Z</time>
      </trkpt>
      <trkpt lat="48.43518" lon="2.61151">
        <ele>127.59999847412</ele>
        <time>2013-12-05T13:39:14.000Z</time>
      </trkpt>
      <trkpt lat="48.43517" lon="2.61155">
        <ele>127.59999847412</ele>
        <time>2013-12-05T13:39:15.000Z</time>
      </trkpt>
      <trkpt lat="48.43516" lon="2.61159">
        <ele>127.59999847412</ele>
        <time>2013-12-05T13:39:16.000Z</time>
      </trkpt>
      <trkpt lat="48.43514" lon="2.61172">
        <ele>127.59999847412</ele>
        <time>2013-12-05T13:39:20.000Z</time>
      </trkpt>
      <trkpt lat="48.43513" lon="2.61175">
        <ele>127.59999847412</ele>
        <time>2013-12-05T13:39:21.000Z</time>
      </trkpt>
      <trkpt lat="48.43512" lon="2.6119">
        <ele>127.59999847412</ele>
        <time>2013-12-05T13:39:26.000Z</time>
      </trkpt>
      <trkpt lat="48.43511" lon="2.61191">
        <ele>127.59999847412</ele>
        <time>2013-12-05T13:39:27.000Z</time>
      </trkpt>
      <trkpt lat="48.4351" lon="2.61195">
        <ele>127.59999847412</ele>
        <time>2013-12-05T13:39:28.000Z</time>
      </trkpt>
      <trkpt lat="48.4351" lon="2.61213">
        <ele>127.80000305176</ele>
        <time>2013-12-05T13:39:33.000Z</time>
      </trkpt>
      <trkpt lat="48.43508" lon="2.61216">
        <ele>127.80000305176</ele>
        <time>2013-12-05T13:39:34.000Z</time>
      </trkpt>
      <trkpt lat="48.43503" lon="2.61226">
        <ele>127.80000305176</ele>
        <time>2013-12-05T13:39:38.000Z</time>
      </trkpt>
      <trkpt lat="48.43502" lon="2.61227">
        <ele>127.80000305176</ele>
        <time>2013-12-05T13:39:39.000Z</time>
      </trkpt>
      <trkpt lat="48.43499" lon="2.61235">
        <ele>127.59999847412</ele>
        <time>2013-12-05T13:39:41.000Z</time>
      </trkpt>
      <trkpt lat="48.43499" lon="2.61242">
        <ele>127.80000305176</ele>
        <time>2013-12-05T13:39:43.000Z</time>
      </trkpt>
      <trkpt lat="48.43496" lon="2.61256">
        <ele>127.40000152588</ele>
        <time>2013-12-05T13:39:48.000Z</time>
      </trkpt>
      <trkpt lat="48.435" lon="2.61268">
        <ele>127.80000305176</ele>
        <time>2013-12-05T13:39:53.000Z</time>
      </trkpt>
      <trkpt lat="48.43502" lon="2.61284">
        <ele>127.40000152588</ele>
        <time>2013-12-05T13:39:57.000Z</time>
      </trkpt>
      <trkpt lat="48.43502" lon="2.61289">
        <ele>127.40000152588</ele>
        <time>2013-12-05T13:39:58.000Z</time>
      </trkpt>
      <trkpt lat="48.435" lon="2.61296">
        <ele>127.40000152588</ele>
        <time>2013-12-05T13:40:01.000Z</time>
      </trkpt>
      <trkpt lat="48.43501" lon="2.61297">
        <ele>127.40000152588</ele>
        <time>2013-12-05T13:40:06.000Z</time>
      </trkpt>
      <trkpt lat="48.43502" lon="2.61303">
        <ele>127.19999694824</ele>
        <time>2013-12-05T13:40:13.000Z</time>
      </trkpt>
      <trkpt lat="48.43504" lon="2.6131">
        <ele>126.80000305176</ele>
        <time>2013-12-05T13:40:19.000Z</time>
      </trkpt>
      <trkpt lat="48.43506" lon="2.61316">
        <ele>126.59999847412</ele>
        <time>2013-12-05T13:40:25.000Z</time>
      </trkpt>
      <trkpt lat="48.43507" lon="2.61329">
        <ele>126.19999694824</ele>
        <time>2013-12-05T13:40:32.000Z</time>
      </trkpt>
      <trkpt lat="48.43511" lon="2.61348">
        <ele>124.40000152588</ele>
        <time>2013-12-05T13:40:41.000Z</time>
      </trkpt>
      <trkpt lat="48.43512" lon="2.61349">
        <ele>124</ele>
        <time>2013-12-05T13:40:43.000Z</time>
      </trkpt>
      <trkpt lat="48.43516" lon="2.61355">
        <ele>123</ele>
        <time>2013-12-05T13:40:47.000Z</time>
      </trkpt>
      <trkpt lat="48.43517" lon="2.61356">
        <ele>122.80000305176</ele>
        <time>2013-12-05T13:40:49.000Z</time>
      </trkpt>
      <trkpt lat="48.43518" lon="2.61357">
        <ele>122.59999847412</ele>
        <time>2013-12-05T13:41:02.000Z</time>
      </trkpt>
      <trkpt lat="48.43516" lon="2.6136">
        <ele>122.59999847412</ele>
        <time>2013-12-05T13:41:07.000Z</time>
      </trkpt>
      <trkpt lat="48.43511" lon="2.61365">
        <ele>123.19999694824</ele>
        <time>2013-12-05T13:41:13.000Z</time>
      </trkpt>
      <trkpt lat="48.43507" lon="2.61369">
        <ele>123.59999847412</ele>
        <time>2013-12-05T13:41:17.000Z</time>
      </trkpt>
      <trkpt lat="48.43502" lon="2.61377">
        <ele>124</ele>
        <time>2013-12-05T13:41:25.000Z</time>
      </trkpt>
      <trkpt lat="48.43501" lon="2.61377">
        <ele>124.19999694824</ele>
        <time>2013-12-05T13:41:26.000Z</time>
      </trkpt>
      <trkpt lat="48.43498" lon="2.61376">
        <ele>124.40000152588</ele>
        <time>2013-12-05T13:41:33.000Z</time>
      </trkpt>
      <trkpt lat="48.43494" lon="2.61372">
        <ele>124.40000152588</ele>
        <time>2013-12-05T13:41:39.000Z</time>
      </trkpt>
      <trkpt lat="48.43492" lon="2.61371">
        <ele>124.40000152588</ele>
        <time>2013-12-05T13:41:44.000Z</time>
      </trkpt>
      <trkpt lat="48.43489" lon="2.61372">
        <ele>124.40000152588</ele>
        <time>2013-12-05T13:41:50.000Z</time>
      </trkpt>
      <trkpt lat="48.43487" lon="2.6137">
        <ele>124.40000152588</ele>
        <time>2013-12-05T13:41:53.000Z</time>
      </trkpt>
      <trkpt lat="48.43481" lon="2.61367">
        <ele>124.19999694824</ele>
        <time>2013-12-05T13:41:58.000Z</time>
      </trkpt>
      <trkpt lat="48.43479" lon="2.61373">
        <ele>124</ele>
        <time>2013-12-05T13:42:01.000Z</time>
      </trkpt>
      <trkpt lat="48.4348" lon="2.61374">
        <ele>124</ele>
        <time>2013-12-05T13:42:02.000Z</time>
      </trkpt>
      <trkpt lat="48.43481" lon="2.61376">
        <ele>123.80000305176</ele>
        <time>2013-12-05T13:42:03.000Z</time>
      </trkpt>
      <trkpt lat="48.43478" lon="2.61385">
        <ele>123.59999847412</ele>
        <time>2013-12-05T13:42:08.000Z</time>
      </trkpt>
      <trkpt lat="48.43476" lon="2.61387">
        <ele>123.40000152588</ele>
        <time>2013-12-05T13:42:09.000Z</time>
      </trkpt>
      <trkpt lat="48.43472" lon="2.61394">
        <ele>123.19999694824</ele>
        <time>2013-12-05T13:42:12.000Z</time>
      </trkpt>
      <trkpt lat="48.43469" lon="2.614">
        <ele>123</ele>
        <time>2013-12-05T13:42:17.000Z</time>
      </trkpt>
      <trkpt lat="48.43462" lon="2.61409">
        <ele>123</ele>
        <time>2013-12-05T13:42:22.000Z</time>
      </trkpt>
      <trkpt lat="48.4345" lon="2.61444">
        <ele>123</ele>
        <time>2013-12-05T13:42:33.000Z</time>
      </trkpt>
      <trkpt lat="48.4345" lon="2.61452">
        <ele>123</ele>
        <time>2013-12-05T13:42:36.000Z</time>
      </trkpt>
      <trkpt lat="48.43449" lon="2.61456">
        <ele>123.19999694824</ele>
        <time>2013-12-05T13:42:37.000Z</time>
      </trkpt>
      <trkpt lat="48.43447" lon="2.61464">
        <ele>123.19999694824</ele>
        <time>2013-12-05T13:42:39.000Z</time>
      </trkpt>
      <trkpt lat="48.43441" lon="2.61482">
        <ele>124</ele>
        <time>2013-12-05T13:42:44.000Z</time>
      </trkpt>
      <trkpt lat="48.43435" lon="2.61498">
        <ele>125</ele>
        <time>2013-12-05T13:42:49.000Z</time>
      </trkpt>
      <trkpt lat="48.4343" lon="2.61509">
        <ele>125.80000305176</ele>
        <time>2013-12-05T13:42:53.000Z</time>
      </trkpt>
      <trkpt lat="48.43426" lon="2.61523">
        <ele>126.19999694824</ele>
        <time>2013-12-05T13:42:57.000Z</time>
      </trkpt>
      <trkpt lat="48.43423" lon="2.61539">
        <ele>126.80000305176</ele>
        <time>2013-12-05T13:43:01.000Z</time>
      </trkpt>
      <trkpt lat="48.43413" lon="2.61555">
        <ele>127.80000305176</ele>
        <time>2013-12-05T13:43:08.000Z</time>
      </trkpt>
      <trkpt lat="48.43411" lon="2.61559">
        <ele>127.80000305176</ele>
        <time>2013-12-05T13:43:09.000Z</time>
      </trkpt>
      <trkpt lat="48.43408" lon="2.61573">
        <ele>127.59999847412</ele>
        <time>2013-12-05T13:43:14.000Z</time>
      </trkpt>
      <trkpt lat="48.43406" lon="2.61586">
        <ele>127.40000152588</ele>
        <time>2013-12-05T13:43:19.000Z</time>
      </trkpt>
      <trkpt lat="48.43403" lon="2.61589">
        <ele>127.40000152588</ele>
        <time>2013-12-05T13:43:21.000Z</time>
      </trkpt>
      <trkpt lat="48.43401" lon="2.6159">
        <ele>127.19999694824</ele>
        <time>2013-12-05T13:43:23.000Z</time>
      </trkpt>
      <trkpt lat="48.43399" lon="2.616">
        <ele>127</ele>
        <time>2013-12-05T13:43:26.000Z</time>
      </trkpt>
      <trkpt lat="48.43403" lon="2.61606">
        <ele>127.19999694824</ele>
        <time>2013-12-05T13:43:29.000Z</time>
      </trkpt>
      <trkpt lat="48.43396" lon="2.61612">
        <ele>126.80000305176</ele>
        <time>2013-12-05T13:43:33.000Z</time>
      </trkpt>
      <trkpt lat="48.43395" lon="2.61614">
        <ele>126.80000305176</ele>
        <time>2013-12-05T13:43:34.000Z</time>
      </trkpt>
      <trkpt lat="48.43393" lon="2.61617">
        <ele>126.59999847412</ele>
        <time>2013-12-05T13:43:35.000Z</time>
      </trkpt>
      <trkpt lat="48.43394" lon="2.61627">
        <ele>126.59999847412</ele>
        <time>2013-12-05T13:43:38.000Z</time>
      </trkpt>
      <trkpt lat="48.43393" lon="2.61636">
        <ele>126.59999847412</ele>
        <time>2013-12-05T13:43:41.000Z</time>
      </trkpt>
      <trkpt lat="48.43394" lon="2.61637">
        <ele>126.59999847412</ele>
        <time>2013-12-05T13:43:42.000Z</time>
      </trkpt>
      <trkpt lat="48.43395" lon="2.61638">
        <ele>126.59999847412</ele>
        <time>2013-12-05T13:43:43.000Z</time>
      </trkpt>
      <trkpt lat="48.43398" lon="2.61649">
        <ele>126.59999847412</ele>
        <time>2013-12-05T13:43:47.000Z</time>
      </trkpt>
      <trkpt lat="48.43406" lon="2.61662">
        <ele>126.80000305176</ele>
        <time>2013-12-05T13:43:52.000Z</time>
      </trkpt>
      <trkpt lat="48.43405" lon="2.61669">
        <ele>126.80000305176</ele>
        <time>2013-12-05T13:43:54.000Z</time>
      </trkpt>
      <trkpt lat="48.43402" lon="2.61675">
        <ele>126.59999847412</ele>
        <time>2013-12-05T13:43:56.000Z</time>
      </trkpt>
      <trkpt lat="48.43393" lon="2.6169">
        <ele>126.40000152588</ele>
        <time>2013-12-05T13:44:00.000Z</time>
      </trkpt>
      <trkpt lat="48.4339" lon="2.61695">
        <ele>126.40000152588</ele>
        <time>2013-12-05T13:44:01.000Z</time>
      </trkpt>
      <trkpt lat="48.43387" lon="2.61698">
        <ele>126.40000152588</ele>
        <time>2013-12-05T13:44:03.000Z</time>
      </trkpt>
      <trkpt lat="48.43386" lon="2.61709">
        <ele>126.59999847412</ele>
        <time>2013-12-05T13:44:07.000Z</time>
      </trkpt>
      <trkpt lat="48.43385" lon="2.61718">
        <ele>126.59999847412</ele>
        <time>2013-12-05T13:44:11.000Z</time>
      </trkpt>
      <trkpt lat="48.43386" lon="2.61719">
        <ele>126.59999847412</ele>
        <time>2013-12-05T13:44:12.000Z</time>
      </trkpt>
      <trkpt lat="48.43385" lon="2.61726">
        <ele>126.59999847412</ele>
        <time>2013-12-05T13:44:15.000Z</time>
      </trkpt>
      <trkpt lat="48.43382" lon="2.61731">
        <ele>126.59999847412</ele>
        <time>2013-12-05T13:44:18.000Z</time>
      </trkpt>
      <trkpt lat="48.43378" lon="2.61746">
        <ele>126.80000305176</ele>
        <time>2013-12-05T13:44:24.000Z</time>
      </trkpt>
      <trkpt lat="48.43374" lon="2.6176">
        <ele>127</ele>
        <time>2013-12-05T13:44:28.000Z</time>
      </trkpt>
      <trkpt lat="48.4337" lon="2.61777">
        <ele>127.40000152588</ele>
        <time>2013-12-05T13:44:32.000Z</time>
      </trkpt>
      <trkpt lat="48.43371" lon="2.6179">
        <ele>127.40000152588</ele>
        <time>2013-12-05T13:44:36.000Z</time>
      </trkpt>
      <trkpt lat="48.4337" lon="2.61797">
        <ele>127.59999847412</ele>
        <time>2013-12-05T13:44:38.000Z</time>
      </trkpt>
      <trkpt lat="48.43363" lon="2.61817">
        <ele>128.39999389648</ele>
        <time>2013-12-05T13:44:44.000Z</time>
      </trkpt>
      <trkpt lat="48.43363" lon="2.6182">
        <ele>128.60000610352</ele>
        <time>2013-12-05T13:44:45.000Z</time>
      </trkpt>
      <trkpt lat="48.43369" lon="2.6183">
        <ele>128.19999694824</ele>
        <time>2013-12-05T13:44:48.000Z</time>
      </trkpt>
      <trkpt lat="48.43373" lon="2.6184">
        <ele>127.80000305176</ele>
        <time>2013-12-05T13:44:51.000Z</time>
      </trkpt>
      <trkpt lat="48.43377" lon="2.61851">
        <ele>127.40000152588</ele>
        <time>2013-12-05T13:44:54.000Z</time>
      </trkpt>
      <trkpt lat="48.43372" lon="2.6187">
        <ele>128</ele>
        <time>2013-12-05T13:44:59.000Z</time>
      </trkpt>
      <trkpt lat="48.43367" lon="2.61885">
        <ele>128.80000305176</ele>
        <time>2013-12-05T13:45:03.000Z</time>
      </trkpt>
      <trkpt lat="48.43364" lon="2.619">
        <ele>129.39999389648</ele>
        <time>2013-12-05T13:45:08.000Z</time>
      </trkpt>
      <trkpt lat="48.43363" lon="2.61901">
        <ele>129.60000610352</ele>
        <time>2013-12-05T13:45:09.000Z</time>
      </trkpt>
      <trkpt lat="48.43357" lon="2.61908">
        <ele>130.39999389648</ele>
        <time>2013-12-05T13:45:12.000Z</time>
      </trkpt>
      <trkpt lat="48.43357" lon="2.61923">
        <ele>130.60000610352</ele>
        <time>2013-12-05T13:45:16.000Z</time>
      </trkpt>
      <trkpt lat="48.43355" lon="2.61933">
        <ele>131</ele>
        <time>2013-12-05T13:45:19.000Z</time>
      </trkpt>
      <trkpt lat="48.4335" lon="2.61957">
        <ele>131.80000305176</ele>
        <time>2013-12-05T13:45:26.000Z</time>
      </trkpt>
      <trkpt lat="48.43349" lon="2.61969">
        <ele>132</ele>
        <time>2013-12-05T13:45:30.000Z</time>
      </trkpt>
      <trkpt lat="48.43343" lon="2.62021">
        <ele>132.60000610352</ele>
        <time>2013-12-05T13:45:44.000Z</time>
      </trkpt>
      <trkpt lat="48.4334" lon="2.62033">
        <ele>132.39999389648</ele>
        <time>2013-12-05T13:45:48.000Z</time>
      </trkpt>
      <trkpt lat="48.43339" lon="2.62055">
        <ele>131.80000305176</ele>
        <time>2013-12-05T13:45:54.000Z</time>
      </trkpt>
      <trkpt lat="48.43339" lon="2.62062">
        <ele>131.60000610352</ele>
        <time>2013-12-05T13:45:57.000Z</time>
      </trkpt>
      <trkpt lat="48.43339" lon="2.62066">
        <ele>131.60000610352</ele>
        <time>2013-12-05T13:45:59.000Z</time>
      </trkpt>
      <trkpt lat="48.43333" lon="2.6208">
        <ele>132.19999694824</ele>
        <time>2013-12-05T13:46:06.000Z</time>
      </trkpt>
      <trkpt lat="48.43325" lon="2.62091">
        <ele>132.19999694824</ele>
        <time>2013-12-05T13:46:10.000Z</time>
      </trkpt>
      <trkpt lat="48.43325" lon="2.62105">
        <ele>131.60000610352</ele>
        <time>2013-12-05T13:46:14.000Z</time>
      </trkpt>
      <trkpt lat="48.4332" lon="2.62114">
        <ele>131.60000610352</ele>
        <time>2013-12-05T13:46:17.000Z</time>
      </trkpt>
      <trkpt lat="48.43317" lon="2.62118">
        <ele>131.80000305176</ele>
        <time>2013-12-05T13:46:19.000Z</time>
      </trkpt>
      <trkpt lat="48.43316" lon="2.62122">
        <ele>131.60000610352</ele>
        <time>2013-12-05T13:46:20.000Z</time>
      </trkpt>
      <trkpt lat="48.43314" lon="2.6214">
        <ele>131.19999694824</ele>
        <time>2013-12-05T13:46:25.000Z</time>
      </trkpt>
      <trkpt lat="48.43312" lon="2.62147">
        <ele>131</ele>
        <time>2013-12-05T13:46:27.000Z</time>
      </trkpt>
      <trkpt lat="48.43304" lon="2.62161">
        <ele>131.39999389648</ele>
        <time>2013-12-05T13:46:32.000Z</time>
      </trkpt>
      <trkpt lat="48.43299" lon="2.62177">
        <ele>131.39999389648</ele>
        <time>2013-12-05T13:46:36.000Z</time>
      </trkpt>
      <trkpt lat="48.43299" lon="2.62193">
        <ele>130.80000305176</ele>
        <time>2013-12-05T13:46:40.000Z</time>
      </trkpt>
      <trkpt lat="48.43298" lon="2.62199">
        <ele>130.60000610352</ele>
        <time>2013-12-05T13:46:41.000Z</time>
      </trkpt>
      <trkpt lat="48.43301" lon="2.62228">
        <ele>129.39999389648</ele>
        <time>2013-12-05T13:46:48.000Z</time>
      </trkpt>
      <trkpt lat="48.43301" lon="2.62252">
        <ele>128.60000610352</ele>
        <time>2013-12-05T13:46:53.000Z</time>
      </trkpt>
      <trkpt lat="48.43299" lon="2.62264">
        <ele>128.19999694824</ele>
        <time>2013-12-05T13:46:56.000Z</time>
      </trkpt>
      <trkpt lat="48.43292" lon="2.62275">
        <ele>128.39999389648</ele>
        <time>2013-12-05T13:47:01.000Z</time>
      </trkpt>
      <trkpt lat="48.43292" lon="2.62276">
        <ele>128.39999389648</ele>
        <time>2013-12-05T13:47:02.000Z</time>
      </trkpt>
      <trkpt lat="48.4329" lon="2.62282">
        <ele>128.39999389648</ele>
        <time>2013-12-05T13:47:04.000Z</time>
      </trkpt>
      <trkpt lat="48.43285" lon="2.62297">
        <ele>128.19999694824</ele>
        <time>2013-12-05T13:47:08.000Z</time>
      </trkpt>
      <trkpt lat="48.43278" lon="2.62321">
        <ele>127.80000305176</ele>
        <time>2013-12-05T13:47:13.000Z</time>
      </trkpt>
      <trkpt lat="48.43273" lon="2.62341">
        <ele>127.59999847412</ele>
        <time>2013-12-05T13:47:19.000Z</time>
      </trkpt>
      <trkpt lat="48.4327" lon="2.62344">
        <ele>128</ele>
        <time>2013-12-05T13:47:20.000Z</time>
      </trkpt>
      <trkpt lat="48.43261" lon="2.62355">
        <ele>128.80000305176</ele>
        <time>2013-12-05T13:47:25.000Z</time>
      </trkpt>
      <trkpt lat="48.4326" lon="2.62358">
        <ele>129</ele>
        <time>2013-12-05T13:47:26.000Z</time>
      </trkpt>
      <trkpt lat="48.43256" lon="2.62363">
        <ele>129.39999389648</ele>
        <time>2013-12-05T13:47:28.000Z</time>
      </trkpt>
      <trkpt lat="48.43248" lon="2.62379">
        <ele>130.19999694824</ele>
        <time>2013-12-05T13:47:32.000Z</time>
      </trkpt>
      <trkpt lat="48.43244" lon="2.62406">
        <ele>130.80000305176</ele>
        <time>2013-12-05T13:47:38.000Z</time>
      </trkpt>
      <trkpt lat="48.43243" lon="2.62408">
        <ele>130.80000305176</ele>
        <time>2013-12-05T13:47:39.000Z</time>
      </trkpt>
      <trkpt lat="48.43245" lon="2.62426">
        <ele>130.60000610352</ele>
        <time>2013-12-05T13:47:43.000Z</time>
      </trkpt>
      <trkpt lat="48.43248" lon="2.62447">
        <ele>130.19999694824</ele>
        <time>2013-12-05T13:47:48.000Z</time>
      </trkpt>
      <trkpt lat="48.43247" lon="2.62451">
        <ele>130.39999389648</ele>
        <time>2013-12-05T13:47:49.000Z</time>
      </trkpt>
      <trkpt lat="48.43248" lon="2.62467">
        <ele>130.19999694824</ele>
        <time>2013-12-05T13:47:53.000Z</time>
      </trkpt>
      <trkpt lat="48.43257" lon="2.62477">
        <ele>128.80000305176</ele>
        <time>2013-12-05T13:47:58.000Z</time>
      </trkpt>
      <trkpt lat="48.43259" lon="2.62479">
        <ele>128.39999389648</ele>
        <time>2013-12-05T13:47:59.000Z</time>
      </trkpt>
      <trkpt lat="48.43269" lon="2.62485">
        <ele>127</ele>
        <time>2013-12-05T13:48:03.000Z</time>
      </trkpt>
      <trkpt lat="48.43274" lon="2.62496">
        <ele>126</ele>
        <time>2013-12-05T13:48:07.000Z</time>
      </trkpt>
      <trkpt lat="48.43274" lon="2.625">
        <ele>126</ele>
        <time>2013-12-05T13:48:09.000Z</time>
      </trkpt>
      <trkpt lat="48.43274" lon="2.62506">
        <ele>125.80000305176</ele>
        <time>2013-12-05T13:48:14.000Z</time>
      </trkpt>
      <trkpt lat="48.43275" lon="2.62514">
        <ele>125.40000152588</ele>
        <time>2013-12-05T13:48:25.000Z</time>
      </trkpt>
      <trkpt lat="48.43275" lon="2.62524">
        <ele>125</ele>
        <time>2013-12-05T13:48:29.000Z</time>
      </trkpt>
      <trkpt lat="48.43276" lon="2.62535">
        <ele>124.59999847412</ele>
        <time>2013-12-05T13:48:33.000Z</time>
      </trkpt>
      <trkpt lat="48.43282" lon="2.62545">
        <ele>123.19999694824</ele>
        <time>2013-12-05T13:48:37.000Z</time>
      </trkpt>
      <trkpt lat="48.43295" lon="2.62554">
        <ele>121</ele>
        <time>2013-12-05T13:48:44.000Z</time>
      </trkpt>
      <trkpt lat="48.43311" lon="2.6256">
        <ele>118.19999694824</ele>
        <time>2013-12-05T13:48:50.000Z</time>
      </trkpt>
      <trkpt lat="48.43312" lon="2.6256">
        <ele>118</ele>
        <time>2013-12-05T13:48:51.000Z</time>
      </trkpt>
      <trkpt lat="48.43319" lon="2.62567">
        <ele>116.59999847412</ele>
        <time>2013-12-05T13:48:54.000Z</time>
      </trkpt>
      <trkpt lat="48.43325" lon="2.62571">
        <ele>115.59999847412</ele>
        <time>2013-12-05T13:48:57.000Z</time>
      </trkpt>
      <trkpt lat="48.43329" lon="2.62586">
        <ele>114.40000152588</ele>
        <time>2013-12-05T13:49:01.000Z</time>
      </trkpt>
      <trkpt lat="48.43328" lon="2.62592">
        <ele>114</ele>
        <time>2013-12-05T13:49:03.000Z</time>
      </trkpt>
      <trkpt lat="48.43327" lon="2.62613">
        <ele>112.40000152588</ele>
        <time>2013-12-05T13:49:07.000Z</time>
      </trkpt>
      <trkpt lat="48.43325" lon="2.62644">
        <ele>109.80000305176</ele>
        <time>2013-12-05T13:49:14.000Z</time>
      </trkpt>
      <trkpt lat="48.43324" lon="2.62665">
        <ele>108</ele>
        <time>2013-12-05T13:49:18.000Z</time>
      </trkpt>
      <trkpt lat="48.43324" lon="2.62671">
        <ele>107.80000305176</ele>
        <time>2013-12-05T13:49:19.000Z</time>
      </trkpt>
      <trkpt lat="48.43328" lon="2.62688">
        <ele>106.40000152588</ele>
        <time>2013-12-05T13:49:24.000Z</time>
      </trkpt>
      <trkpt lat="48.43331" lon="2.62709">
        <ele>105.40000152588</ele>
        <time>2013-12-05T13:49:29.000Z</time>
      </trkpt>
      <trkpt lat="48.43343" lon="2.62722">
        <ele>103.80000305176</ele>
        <time>2013-12-05T13:49:33.000Z</time>
      </trkpt>
      <trkpt lat="48.4335" lon="2.62728">
        <ele>103</ele>
        <time>2013-12-05T13:49:36.000Z</time>
      </trkpt>
      <trkpt lat="48.43352" lon="2.62739">
        <ele>102.40000152588</ele>
        <time>2013-12-05T13:49:39.000Z</time>
      </trkpt>
      <trkpt lat="48.43355" lon="2.62754">
        <ele>102</ele>
        <time>2013-12-05T13:49:44.000Z</time>
      </trkpt>
      <trkpt lat="48.43357" lon="2.62775">
        <ele>102</ele>
        <time>2013-12-05T13:49:52.000Z</time>
      </trkpt>
      <trkpt lat="48.43357" lon="2.62778">
        <ele>102</ele>
        <time>2013-12-05T13:49:53.000Z</time>
      </trkpt>
      <trkpt lat="48.43351" lon="2.62788">
        <ele>102.40000152588</ele>
        <time>2013-12-05T13:49:56.000Z</time>
      </trkpt>
      <trkpt lat="48.43349" lon="2.6279">
        <ele>102.59999847412</ele>
        <time>2013-12-05T13:49:58.000Z</time>
      </trkpt>
      <trkpt lat="48.43347" lon="2.6279">
        <ele>102.80000305176</ele>
        <time>2013-12-05T13:49:59.000Z</time>
      </trkpt>
      <trkpt lat="48.43338" lon="2.62801">
        <ele>103.59999847412</ele>
        <time>2013-12-05T13:50:04.000Z</time>
      </trkpt>
      <trkpt lat="48.43323" lon="2.62812">
        <ele>105.40000152588</ele>
        <time>2013-12-05T13:50:11.000Z</time>
      </trkpt>
      <trkpt lat="48.4332" lon="2.62814">
        <ele>105.80000305176</ele>
        <time>2013-12-05T13:50:12.000Z</time>
      </trkpt>
      <trkpt lat="48.43306" lon="2.62815">
        <ele>107.80000305176</ele>
        <time>2013-12-05T13:50:18.000Z</time>
      </trkpt>
      <trkpt lat="48.43304" lon="2.62817">
        <ele>108</ele>
        <time>2013-12-05T13:50:19.000Z</time>
      </trkpt>
      <trkpt lat="48.43297" lon="2.62826">
        <ele>108.80000305176</ele>
        <time>2013-12-05T13:50:23.000Z</time>
      </trkpt>
      <trkpt lat="48.43288" lon="2.62835">
        <ele>110</ele>
        <time>2013-12-05T13:50:28.000Z</time>
      </trkpt>
      <trkpt lat="48.43286" lon="2.62838">
        <ele>110.19999694824</ele>
        <time>2013-12-05T13:50:29.000Z</time>
      </trkpt>
      <trkpt lat="48.43285" lon="2.62844">
        <ele>110.19999694824</ele>
        <time>2013-12-05T13:50:32.000Z</time>
      </trkpt>
      <trkpt lat="48.43281" lon="2.62864">
        <ele>110.40000152588</ele>
        <time>2013-12-05T13:50:37.000Z</time>
      </trkpt>
      <trkpt lat="48.43282" lon="2.62865">
        <ele>110.19999694824</ele>
        <time>2013-12-05T13:50:38.000Z</time>
      </trkpt>
      <trkpt lat="48.43285" lon="2.62867">
        <ele>110</ele>
        <time>2013-12-05T13:50:39.000Z</time>
      </trkpt>
      <trkpt lat="48.43289" lon="2.62881">
        <ele>109.40000152588</ele>
        <time>2013-12-05T13:50:43.000Z</time>
      </trkpt>
      <trkpt lat="48.43289" lon="2.62886">
        <ele>109.40000152588</ele>
        <time>2013-12-05T13:50:45.000Z</time>
      </trkpt>
      <trkpt lat="48.43286" lon="2.62903">
        <ele>109.40000152588</ele>
        <time>2013-12-05T13:50:49.000Z</time>
      </trkpt>
      <trkpt lat="48.43286" lon="2.62906">
        <ele>109.40000152588</ele>
        <time>2013-12-05T13:50:50.000Z</time>
      </trkpt>
      <trkpt lat="48.43285" lon="2.62914">
        <ele>109.40000152588</ele>
        <time>2013-12-05T13:50:52.000Z</time>
      </trkpt>
      <trkpt lat="48.4328" lon="2.62928">
        <ele>109.80000305176</ele>
        <time>2013-12-05T13:50:57.000Z</time>
      </trkpt>
      <trkpt lat="48.43274" lon="2.62946">
        <ele>110.19999694824</ele>
        <time>2013-12-05T13:51:02.000Z</time>
      </trkpt>
      <trkpt lat="48.4327" lon="2.62956">
        <ele>110.40000152588</ele>
        <time>2013-12-05T13:51:04.000Z</time>
      </trkpt>
      <trkpt lat="48.43268" lon="2.6297">
        <ele>110.59999847412</ele>
        <time>2013-12-05T13:51:08.000Z</time>
      </trkpt>
      <trkpt lat="48.43266" lon="2.62973">
        <ele>110.59999847412</ele>
        <time>2013-12-05T13:51:09.000Z</time>
      </trkpt>
      <trkpt lat="48.43263" lon="2.62991">
        <ele>110.80000305176</ele>
        <time>2013-12-05T13:51:13.000Z</time>
      </trkpt>
      <trkpt lat="48.43257" lon="2.63019">
        <ele>111.40000152588</ele>
        <time>2013-12-05T13:51:20.000Z</time>
      </trkpt>
      <trkpt lat="48.4325" lon="2.63045">
        <ele>112</ele>
        <time>2013-12-05T13:51:26.000Z</time>
      </trkpt>
      <trkpt lat="48.43243" lon="2.63066">
        <ele>113.40000152588</ele>
        <time>2013-12-05T13:51:32.000Z</time>
      </trkpt>
      <trkpt lat="48.43236" lon="2.63087">
        <ele>114.59999847412</ele>
        <time>2013-12-05T13:51:38.000Z</time>
      </trkpt>
      <trkpt lat="48.43227" lon="2.63103">
        <ele>116.40000152588</ele>
        <time>2013-12-05T13:51:43.000Z</time>
      </trkpt>
      <trkpt lat="48.43215" lon="2.63121">
        <ele>118.40000152588</ele>
        <time>2013-12-05T13:51:50.000Z</time>
      </trkpt>
      <trkpt lat="48.43205" lon="2.63131">
        <ele>119.80000305176</ele>
        <time>2013-12-05T13:51:56.000Z</time>
      </trkpt>
      <trkpt lat="48.43203" lon="2.63132">
        <ele>120</ele>
        <time>2013-12-05T13:51:58.000Z</time>
      </trkpt>
      <trkpt lat="48.43199" lon="2.6314">
        <ele>120.59999847412</ele>
        <time>2013-12-05T13:52:02.000Z</time>
      </trkpt>
      <trkpt lat="48.43191" lon="2.63161">
        <ele>122</ele>
        <time>2013-12-05T13:52:09.000Z</time>
      </trkpt>
      <trkpt lat="48.43187" lon="2.63179">
        <ele>123.40000152588</ele>
        <time>2013-12-05T13:52:14.000Z</time>
      </trkpt>
      <trkpt lat="48.4318" lon="2.63199">
        <ele>125.40000152588</ele>
        <time>2013-12-05T13:52:20.000Z</time>
      </trkpt>
      <trkpt lat="48.43179" lon="2.63203">
        <ele>125.80000305176</ele>
        <time>2013-12-05T13:52:21.000Z</time>
      </trkpt>
      <trkpt lat="48.43177" lon="2.6321">
        <ele>126.40000152588</ele>
        <time>2013-12-05T13:52:28.000Z</time>
      </trkpt>
      <trkpt lat="48.43177" lon="2.63211">
        <ele>126.40000152588</ele>
        <time>2013-12-05T13:52:29.000Z</time>
      </trkpt>
      <trkpt lat="48.4318" lon="2.6322">
        <ele>127</ele>
        <time>2013-12-05T13:52:33.000Z</time>
      </trkpt>
      <trkpt lat="48.43181" lon="2.63224">
        <ele>127.19999694824</ele>
        <time>2013-12-05T13:52:36.000Z</time>
      </trkpt>
      <trkpt lat="48.43183" lon="2.63227">
        <ele>127.40000152588</ele>
        <time>2013-12-05T13:52:38.000Z</time>
      </trkpt>
      <trkpt lat="48.4318" lon="2.63233">
        <ele>128</ele>
        <time>2013-12-05T13:52:42.000Z</time>
      </trkpt>
      <trkpt lat="48.43181" lon="2.63236">
        <ele>128.19999694824</ele>
        <time>2013-12-05T13:52:47.000Z</time>
      </trkpt>
      <trkpt lat="48.43181" lon="2.6324">
        <ele>128.39999389648</ele>
        <time>2013-12-05T13:52:50.000Z</time>
      </trkpt>
      <trkpt lat="48.4318" lon="2.63246">
        <ele>128.80000305176</ele>
        <time>2013-12-05T13:52:54.000Z</time>
      </trkpt>
      <trkpt lat="48.43179" lon="2.63249">
        <ele>129.19999694824</ele>
        <time>2013-12-05T13:52:57.000Z</time>
      </trkpt>
      <trkpt lat="48.43174" lon="2.63255">
        <ele>129.80000305176</ele>
        <time>2013-12-05T13:53:01.000Z</time>
      </trkpt>
      <trkpt lat="48.43173" lon="2.63256">
        <ele>130</ele>
        <time>2013-12-05T13:53:02.000Z</time>
      </trkpt>
      <trkpt lat="48.43172" lon="2.63259">
        <ele>130.39999389648</ele>
        <time>2013-12-05T13:53:04.000Z</time>
      </trkpt>
      <trkpt lat="48.4317" lon="2.63266">
        <ele>131</ele>
        <time>2013-12-05T13:53:08.000Z</time>
      </trkpt>
      <trkpt lat="48.43169" lon="2.63269">
        <ele>131.19999694824</ele>
        <time>2013-12-05T13:53:10.000Z</time>
      </trkpt>
      <trkpt lat="48.43169" lon="2.63275">
        <ele>131.60000610352</ele>
        <time>2013-12-05T13:53:14.000Z</time>
      </trkpt>
      <trkpt lat="48.43167" lon="2.63285">
        <ele>132.39999389648</ele>
        <time>2013-12-05T13:53:18.000Z</time>
      </trkpt>
      <trkpt lat="48.43164" lon="2.63295">
        <ele>133.39999389648</ele>
        <time>2013-12-05T13:53:24.000Z</time>
      </trkpt>
      <trkpt lat="48.43163" lon="2.63308">
        <ele>134.39999389648</ele>
        <time>2013-12-05T13:53:30.000Z</time>
      </trkpt>
      <trkpt lat="48.43162" lon="2.6331">
        <ele>134.60000610352</ele>
        <time>2013-12-05T13:53:31.000Z</time>
      </trkpt>
      <trkpt lat="48.43164" lon="2.63324">
        <ele>135.39999389648</ele>
        <time>2013-12-05T13:53:38.000Z</time>
      </trkpt>
      <trkpt lat="48.43162" lon="2.63333">
        <ele>136.19999694824</ele>
        <time>2013-12-05T13:53:43.000Z</time>
      </trkpt>
      <trkpt lat="48.43163" lon="2.63334">
        <ele>136.19999694824</ele>
        <time>2013-12-05T13:53:44.000Z</time>
      </trkpt>
      <trkpt lat="48.43163" lon="2.63337">
        <ele>136</ele>
        <time>2013-12-05T13:53:46.000Z</time>
      </trkpt>
      <trkpt lat="48.43163" lon="2.63345">
        <ele>136</ele>
        <time>2013-12-05T13:53:49.000Z</time>
      </trkpt>
      <trkpt lat="48.43161" lon="2.63349">
        <ele>136</ele>
        <time>2013-12-05T13:53:51.000Z</time>
      </trkpt>
      <trkpt lat="48.43164" lon="2.63362">
        <ele>135.80000305176</ele>
        <time>2013-12-05T13:53:55.000Z</time>
      </trkpt>
      <trkpt lat="48.43164" lon="2.63367">
        <ele>135.60000610352</ele>
        <time>2013-12-05T13:53:57.000Z</time>
      </trkpt>
      <trkpt lat="48.43163" lon="2.63385">
        <ele>135.60000610352</ele>
        <time>2013-12-05T13:54:01.000Z</time>
      </trkpt>
      <trkpt lat="48.43163" lon="2.63391">
        <ele>135.39999389648</ele>
        <time>2013-12-05T13:54:03.000Z</time>
      </trkpt>
      <trkpt lat="48.43158" lon="2.63409">
        <ele>135.39999389648</ele>
        <time>2013-12-05T13:54:07.000Z</time>
      </trkpt>
      <trkpt lat="48.43145" lon="2.63428">
        <ele>135.80000305176</ele>
        <time>2013-12-05T13:54:14.000Z</time>
      </trkpt>
      <trkpt lat="48.43144" lon="2.63431">
        <ele>136</ele>
        <time>2013-12-05T13:54:15.000Z</time>
      </trkpt>
      <trkpt lat="48.43141" lon="2.63476">
        <ele>135.60000610352</ele>
        <time>2013-12-05T13:54:26.000Z</time>
      </trkpt>
      <trkpt lat="48.43145" lon="2.63495">
        <ele>135</ele>
        <time>2013-12-05T13:54:30.000Z</time>
      </trkpt>
      <trkpt lat="48.43147" lon="2.6352">
        <ele>134.80000305176</ele>
        <time>2013-12-05T13:54:36.000Z</time>
      </trkpt>
      <trkpt lat="48.4314" lon="2.63546">
        <ele>134.80000305176</ele>
        <time>2013-12-05T13:54:42.000Z</time>
      </trkpt>
      <trkpt lat="48.43136" lon="2.63555">
        <ele>135</ele>
        <time>2013-12-05T13:54:45.000Z</time>
      </trkpt>
      <trkpt lat="48.43131" lon="2.6356">
        <ele>135.19999694824</ele>
        <time>2013-12-05T13:54:47.000Z</time>
      </trkpt>
      <trkpt lat="48.43119" lon="2.63578">
        <ele>135.80000305176</ele>
        <time>2013-12-05T13:54:53.000Z</time>
      </trkpt>
      <trkpt lat="48.43108" lon="2.63591">
        <ele>136.19999694824</ele>
        <time>2013-12-05T13:54:58.000Z</time>
      </trkpt>
      <trkpt lat="48.43101" lon="2.6361">
        <ele>135.80000305176</ele>
        <time>2013-12-05T13:55:03.000Z</time>
      </trkpt>
      <trkpt lat="48.43101" lon="2.63631">
        <ele>135</ele>
        <time>2013-12-05T13:55:08.000Z</time>
      </trkpt>
      <trkpt lat="48.43098" lon="2.63642">
        <ele>134.60000610352</ele>
        <time>2013-12-05T13:55:11.000Z</time>
      </trkpt>
      <trkpt lat="48.43098" lon="2.63662">
        <ele>133.80000305176</ele>
        <time>2013-12-05T13:55:16.000Z</time>
      </trkpt>
      <trkpt lat="48.43095" lon="2.63679">
        <ele>133.39999389648</ele>
        <time>2013-12-05T13:55:20.000Z</time>
      </trkpt>
      <trkpt lat="48.43092" lon="2.63704">
        <ele>133</ele>
        <time>2013-12-05T13:55:25.000Z</time>
      </trkpt>
      <trkpt lat="48.43096" lon="2.63726">
        <ele>132</ele>
        <time>2013-12-05T13:55:30.000Z</time>
      </trkpt>
      <trkpt lat="48.43099" lon="2.63733">
        <ele>131.19999694824</ele>
        <time>2013-12-05T13:55:32.000Z</time>
      </trkpt>
      <trkpt lat="48.43104" lon="2.63737">
        <ele>130.60000610352</ele>
        <time>2013-12-05T13:55:34.000Z</time>
      </trkpt>
      <trkpt lat="48.43111" lon="2.63761">
        <ele>128.80000305176</ele>
        <time>2013-12-05T13:55:40.000Z</time>
      </trkpt>
      <trkpt lat="48.43115" lon="2.63781">
        <ele>127.40000152588</ele>
        <time>2013-12-05T13:55:45.000Z</time>
      </trkpt>
      <trkpt lat="48.43115" lon="2.63784">
        <ele>127.19999694824</ele>
        <time>2013-12-05T13:55:46.000Z</time>
      </trkpt>
      <trkpt lat="48.43109" lon="2.638">
        <ele>127.80000305176</ele>
        <time>2013-12-05T13:55:51.000Z</time>
      </trkpt>
      <trkpt lat="48.43105" lon="2.63801">
        <ele>128.60000610352</ele>
        <time>2013-12-05T13:55:53.000Z</time>
      </trkpt>
      <trkpt lat="48.43101" lon="2.63798">
        <ele>129.19999694824</ele>
        <time>2013-12-05T13:55:55.000Z</time>
      </trkpt>
      <trkpt lat="48.43093" lon="2.63797">
        <ele>130.80000305176</ele>
        <time>2013-12-05T13:55:59.000Z</time>
      </trkpt>
      <trkpt lat="48.43086" lon="2.63806">
        <ele>132</ele>
        <time>2013-12-05T13:56:03.000Z</time>
      </trkpt>
      <trkpt lat="48.43078" lon="2.63821">
        <ele>132.39999389648</ele>
        <time>2013-12-05T13:56:08.000Z</time>
      </trkpt>
      <trkpt lat="48.43074" lon="2.63823">
        <ele>132.60000610352</ele>
        <time>2013-12-05T13:56:11.000Z</time>
      </trkpt>
      <trkpt lat="48.43075" lon="2.63825">
        <ele>132.60000610352</ele>
        <time>2013-12-05T13:56:12.000Z</time>
      </trkpt>
      <trkpt lat="48.43076" lon="2.63831">
        <ele>132.39999389648</ele>
        <time>2013-12-05T13:56:14.000Z</time>
      </trkpt>
      <trkpt lat="48.43076" lon="2.63844">
        <ele>131.80000305176</ele>
        <time>2013-12-05T13:56:18.000Z</time>
      </trkpt>
      <trkpt lat="48.43075" lon="2.63847">
        <ele>131.80000305176</ele>
        <time>2013-12-05T13:56:19.000Z</time>
      </trkpt>
      <trkpt lat="48.43073" lon="2.63849">
        <ele>131.80000305176</ele>
        <time>2013-12-05T13:56:22.000Z</time>
      </trkpt>
      <trkpt lat="48.43063" lon="2.63848">
        <ele>132.39999389648</ele>
        <time>2013-12-05T13:56:26.000Z</time>
      </trkpt>
      <trkpt lat="48.43056" lon="2.63841">
        <ele>133</ele>
        <time>2013-12-05T13:56:31.000Z</time>
      </trkpt>
      <trkpt lat="48.4305" lon="2.63839">
        <ele>133.39999389648</ele>
        <time>2013-12-05T13:56:33.000Z</time>
      </trkpt>
      <trkpt lat="48.43041" lon="2.63852">
        <ele>133.39999389648</ele>
        <time>2013-12-05T13:56:38.000Z</time>
      </trkpt>
      <trkpt lat="48.43041" lon="2.63859">
        <ele>133.19999694824</ele>
        <time>2013-12-05T13:56:41.000Z</time>
      </trkpt>
      <trkpt lat="48.43042" lon="2.63862">
        <ele>133.19999694824</ele>
        <time>2013-12-05T13:56:43.000Z</time>
      </trkpt>
      <trkpt lat="48.43037" lon="2.63871">
        <ele>133.19999694824</ele>
        <time>2013-12-05T13:56:49.000Z</time>
      </trkpt>
      <trkpt lat="48.4304" lon="2.63878">
        <ele>132.80000305176</ele>
        <time>2013-12-05T13:56:54.000Z</time>
      </trkpt>
      <trkpt lat="48.43049" lon="2.63881">
        <ele>132</ele>
        <time>2013-12-05T13:56:58.000Z</time>
      </trkpt>
      <trkpt lat="48.43063" lon="2.6389">
        <ele>130.80000305176</ele>
        <time>2013-12-05T13:57:04.000Z</time>
      </trkpt>
      <trkpt lat="48.43067" lon="2.63894">
        <ele>130.19999694824</ele>
        <time>2013-12-05T13:57:06.000Z</time>
      </trkpt>
      <trkpt lat="48.43067" lon="2.6391">
        <ele>129.60000610352</ele>
        <time>2013-12-05T13:57:11.000Z</time>
      </trkpt>
      <trkpt lat="48.43064" lon="2.63924">
        <ele>129.60000610352</ele>
        <time>2013-12-05T13:57:15.000Z</time>
      </trkpt>
      <trkpt lat="48.43051" lon="2.63934">
        <ele>130.60000610352</ele>
        <time>2013-12-05T13:57:21.000Z</time>
      </trkpt>
      <trkpt lat="48.43042" lon="2.63972">
        <ele>131</ele>
        <time>2013-12-05T13:57:32.000Z</time>
      </trkpt>
      <trkpt lat="48.43041" lon="2.63973">
        <ele>131.19999694824</ele>
        <time>2013-12-05T13:57:33.000Z</time>
      </trkpt>
      <trkpt lat="48.43041" lon="2.6399">
        <ele>131</ele>
        <time>2013-12-05T13:57:38.000Z</time>
      </trkpt>
      <trkpt lat="48.43043" lon="2.63992">
        <ele>131</ele>
        <time>2013-12-05T13:57:39.000Z</time>
      </trkpt>
      <trkpt lat="48.43045" lon="2.64003">
        <ele>130.60000610352</ele>
        <time>2013-12-05T13:57:43.000Z</time>
      </trkpt>
      <trkpt lat="48.43045" lon="2.64004">
        <ele>130.60000610352</ele>
        <time>2013-12-05T13:57:44.000Z</time>
      </trkpt>
      <trkpt lat="48.43045" lon="2.64006">
        <ele>130.80000305176</ele>
        <time>2013-12-05T13:57:45.000Z</time>
      </trkpt>
      <trkpt lat="48.43046" lon="2.64011">
        <ele>130.60000610352</ele>
        <time>2013-12-05T13:57:48.000Z</time>
      </trkpt>
      <trkpt lat="48.43047" lon="2.64022">
        <ele>130.80000305176</ele>
        <time>2013-12-05T13:57:54.000Z</time>
      </trkpt>
      <trkpt lat="48.43045" lon="2.64027">
        <ele>131.19999694824</ele>
        <time>2013-12-05T13:57:57.000Z</time>
      </trkpt>
      <trkpt lat="48.43049" lon="2.64039">
        <ele>131</ele>
        <time>2013-12-05T13:58:00.000Z</time>
      </trkpt>
      <trkpt lat="48.43052" lon="2.64048">
        <ele>130.80000305176</ele>
        <time>2013-12-05T13:58:03.000Z</time>
      </trkpt>
      <trkpt lat="48.43053" lon="2.64058">
        <ele>131</ele>
        <time>2013-12-05T13:58:07.000Z</time>
      </trkpt>
      <trkpt lat="48.43054" lon="2.64059">
        <ele>131</ele>
        <time>2013-12-05T13:58:08.000Z</time>
      </trkpt>
      <trkpt lat="48.4306" lon="2.64063">
        <ele>130.39999389648</ele>
        <time>2013-12-05T13:58:12.000Z</time>
      </trkpt>
      <trkpt lat="48.43063" lon="2.64064">
        <ele>130.19999694824</ele>
        <time>2013-12-05T13:58:15.000Z</time>
      </trkpt>
      <trkpt lat="48.43064" lon="2.64066">
        <ele>130.19999694824</ele>
        <time>2013-12-05T13:58:18.000Z</time>
      </trkpt>
      <trkpt lat="48.43073" lon="2.64066">
        <ele>129.39999389648</ele>
        <time>2013-12-05T13:58:23.000Z</time>
      </trkpt>
      <trkpt lat="48.43075" lon="2.6407">
        <ele>129.19999694824</ele>
        <time>2013-12-05T13:58:25.000Z</time>
      </trkpt>
      <trkpt lat="48.43077" lon="2.64091">
        <ele>129.39999389648</ele>
        <time>2013-12-05T13:58:30.000Z</time>
      </trkpt>
      <trkpt lat="48.43078" lon="2.64095">
        <ele>129.19999694824</ele>
        <time>2013-12-05T13:58:32.000Z</time>
      </trkpt>
      <trkpt lat="48.43078" lon="2.641">
        <ele>129</ele>
        <time>2013-12-05T13:58:37.000Z</time>
      </trkpt>
      <trkpt lat="48.43076" lon="2.64105">
        <ele>129.19999694824</ele>
        <time>2013-12-05T13:58:42.000Z</time>
      </trkpt>
      <trkpt lat="48.43077" lon="2.64102">
        <ele>129</ele>
        <time>2013-12-05T13:58:44.000Z</time>
      </trkpt>
      <trkpt lat="48.43081" lon="2.64096">
        <ele>129</ele>
        <time>2013-12-05T13:58:49.000Z</time>
      </trkpt>
      <trkpt lat="48.43084" lon="2.64103">
        <ele>128.39999389648</ele>
        <time>2013-12-05T13:58:53.000Z</time>
      </trkpt>
      <trkpt lat="48.43078" lon="2.64113">
        <ele>128.80000305176</ele>
        <time>2013-12-05T13:58:58.000Z</time>
      </trkpt>
      <trkpt lat="48.43076" lon="2.64115">
        <ele>128.80000305176</ele>
        <time>2013-12-05T13:58:59.000Z</time>
      </trkpt>
      <trkpt lat="48.43075" lon="2.64116">
        <ele>129</ele>
        <time>2013-12-05T13:59:01.000Z</time>
      </trkpt>
      <trkpt lat="48.43075" lon="2.64117">
        <ele>129</ele>
        <time>2013-12-05T13:59:02.000Z</time>
      </trkpt>
      <trkpt lat="48.43069" lon="2.64121">
        <ele>129.39999389648</ele>
        <time>2013-12-05T13:59:06.000Z</time>
      </trkpt>
      <trkpt lat="48.43062" lon="2.64125">
        <ele>129.80000305176</ele>
        <time>2013-12-05T13:59:12.000Z</time>
      </trkpt>
      <trkpt lat="48.43062" lon="2.64126">
        <ele>129.80000305176</ele>
        <time>2013-12-05T13:59:13.000Z</time>
      </trkpt>
      <trkpt lat="48.43057" lon="2.64132">
        <ele>130</ele>
        <time>2013-12-05T13:59:18.000Z</time>
      </trkpt>
      <trkpt lat="48.43051" lon="2.64142">
        <ele>130.39999389648</ele>
        <time>2013-12-05T13:59:25.000Z</time>
      </trkpt>
      <trkpt lat="48.43049" lon="2.64144">
        <ele>130.39999389648</ele>
        <time>2013-12-05T13:59:27.000Z</time>
      </trkpt>
      <trkpt lat="48.43047" lon="2.64146">
        <ele>130.60000610352</ele>
        <time>2013-12-05T13:59:34.000Z</time>
      </trkpt>
      <trkpt lat="48.43051" lon="2.64142">
        <ele>130.39999389648</ele>
        <time>2013-12-05T13:59:41.000Z</time>
      </trkpt>
      <trkpt lat="48.43052" lon="2.6414">
        <ele>130.19999694824</ele>
        <time>2013-12-05T13:59:42.000Z</time>
      </trkpt>
      <trkpt lat="48.43058" lon="2.6414">
        <ele>129.80000305176</ele>
        <time>2013-12-05T13:59:46.000Z</time>
      </trkpt>
      <trkpt lat="48.43065" lon="2.64146">
        <ele>129</ele>
        <time>2013-12-05T13:59:50.000Z</time>
      </trkpt>
      <trkpt lat="48.43065" lon="2.64148">
        <ele>129</ele>
        <time>2013-12-05T13:59:51.000Z</time>
      </trkpt>
      <trkpt lat="48.43065" lon="2.6415">
        <ele>129</ele>
        <time>2013-12-05T13:59:52.000Z</time>
      </trkpt>
      <trkpt lat="48.43069" lon="2.64154">
        <ele>128.39999389648</ele>
        <time>2013-12-05T13:59:55.000Z</time>
      </trkpt>
      <trkpt lat="48.4307" lon="2.64159">
        <ele>128.19999694824</ele>
        <time>2013-12-05T14:00:00.000Z</time>
      </trkpt>
      <trkpt lat="48.43072" lon="2.64169">
        <ele>128</ele>
        <time>2013-12-05T14:00:07.000Z</time>
      </trkpt>
      <trkpt lat="48.43077" lon="2.6418">
        <ele>127.19999694824</ele>
        <time>2013-12-05T14:00:11.000Z</time>
      </trkpt>
      <trkpt lat="48.43077" lon="2.64183">
        <ele>127.19999694824</ele>
        <time>2013-12-05T14:00:12.000Z</time>
      </trkpt>
      <trkpt lat="48.43075" lon="2.64191">
        <ele>127.19999694824</ele>
        <time>2013-12-05T14:00:15.000Z</time>
      </trkpt>
      <trkpt lat="48.43077" lon="2.64198">
        <ele>126.80000305176</ele>
        <time>2013-12-05T14:00:23.000Z</time>
      </trkpt>
      <trkpt lat="48.43078" lon="2.642">
        <ele>126.80000305176</ele>
        <time>2013-12-05T14:00:24.000Z</time>
      </trkpt>
      <trkpt lat="48.43083" lon="2.64211">
        <ele>126</ele>
        <time>2013-12-05T14:00:28.000Z</time>
      </trkpt>
      <trkpt lat="48.43086" lon="2.64225">
        <ele>125.19999694824</ele>
        <time>2013-12-05T14:00:32.000Z</time>
      </trkpt>
      <trkpt lat="48.43094" lon="2.64235">
        <ele>123.59999847412</ele>
        <time>2013-12-05T14:00:37.000Z</time>
      </trkpt>
      <trkpt lat="48.43104" lon="2.64236">
        <ele>122</ele>
        <time>2013-12-05T14:00:41.000Z</time>
      </trkpt>
      <trkpt lat="48.43113" lon="2.64243">
        <ele>120.40000152588</ele>
        <time>2013-12-05T14:00:45.000Z</time>
      </trkpt>
      <trkpt lat="48.43128" lon="2.64249">
        <ele>118</ele>
        <time>2013-12-05T14:00:50.000Z</time>
      </trkpt>
      <trkpt lat="48.43135" lon="2.64258">
        <ele>117.19999694824</ele>
        <time>2013-12-05T14:00:53.000Z</time>
      </trkpt>
      <trkpt lat="48.4314" lon="2.6427">
        <ele>116.80000305176</ele>
        <time>2013-12-05T14:00:57.000Z</time>
      </trkpt>
      <trkpt lat="48.43142" lon="2.64275">
        <ele>116.59999847412</ele>
        <time>2013-12-05T14:00:59.000Z</time>
      </trkpt>
      <trkpt lat="48.43155" lon="2.64281">
        <ele>114.59999847412</ele>
        <time>2013-12-05T14:01:05.000Z</time>
      </trkpt>
      <trkpt lat="48.43158" lon="2.64281">
        <ele>114.19999694824</ele>
        <time>2013-12-05T14:01:06.000Z</time>
      </trkpt>
      <trkpt lat="48.43166" lon="2.64286">
        <ele>113</ele>
        <time>2013-12-05T14:01:10.000Z</time>
      </trkpt>
      <trkpt lat="48.4317" lon="2.64306">
        <ele>113</ele>
        <time>2013-12-05T14:01:15.000Z</time>
      </trkpt>
      <trkpt lat="48.4317" lon="2.6431">
        <ele>113</ele>
        <time>2013-12-05T14:01:16.000Z</time>
      </trkpt>
      <trkpt lat="48.43173" lon="2.64323">
        <ele>113</ele>
        <time>2013-12-05T14:01:19.000Z</time>
      </trkpt>
      <trkpt lat="48.4318" lon="2.64335">
        <ele>112.40000152588</ele>
        <time>2013-12-05T14:01:23.000Z</time>
      </trkpt>
      <trkpt lat="48.43186" lon="2.64352">
        <ele>111</ele>
        <time>2013-12-05T14:01:28.000Z</time>
      </trkpt>
      <trkpt lat="48.43188" lon="2.64353">
        <ele>110.80000305176</ele>
        <time>2013-12-05T14:01:29.000Z</time>
      </trkpt>
      <trkpt lat="48.43194" lon="2.64368">
        <ele>109.40000152588</ele>
        <time>2013-12-05T14:01:33.000Z</time>
      </trkpt>
      <trkpt lat="48.43201" lon="2.64387">
        <ele>108</ele>
        <time>2013-12-05T14:01:38.000Z</time>
      </trkpt>
      <trkpt lat="48.43207" lon="2.64403">
        <ele>107</ele>
        <time>2013-12-05T14:01:43.000Z</time>
      </trkpt>
      <trkpt lat="48.43214" lon="2.64426">
        <ele>106</ele>
        <time>2013-12-05T14:01:49.000Z</time>
      </trkpt>
      <trkpt lat="48.4322" lon="2.6444">
        <ele>105.40000152588</ele>
        <time>2013-12-05T14:01:53.000Z</time>
      </trkpt>
      <trkpt lat="48.43227" lon="2.64455">
        <ele>104.59999847412</ele>
        <time>2013-12-05T14:01:57.000Z</time>
      </trkpt>
      <trkpt lat="48.43236" lon="2.64476">
        <ele>103.80000305176</ele>
        <time>2013-12-05T14:02:02.000Z</time>
      </trkpt>
      <trkpt lat="48.43239" lon="2.64484">
        <ele>103.40000152588</ele>
        <time>2013-12-05T14:02:04.000Z</time>
      </trkpt>
      <trkpt lat="48.43242" lon="2.645">
        <ele>102.80000305176</ele>
        <time>2013-12-05T14:02:07.000Z</time>
      </trkpt>
      <trkpt lat="48.43249" lon="2.64522">
        <ele>101.40000152588</ele>
        <time>2013-12-05T14:02:12.000Z</time>
      </trkpt>
      <trkpt lat="48.4325" lon="2.64529">
        <ele>101</ele>
        <time>2013-12-05T14:02:15.000Z</time>
      </trkpt>
      <trkpt lat="48.43248" lon="2.64534">
        <ele>101.19999694824</ele>
        <time>2013-12-05T14:02:23.000Z</time>
      </trkpt>
      <trkpt lat="48.43241" lon="2.64545">
        <ele>101.59999847412</ele>
        <time>2013-12-05T14:02:30.000Z</time>
      </trkpt>
      <trkpt lat="48.43234" lon="2.6456">
        <ele>102.19999694824</ele>
        <time>2013-12-05T14:02:35.000Z</time>
      </trkpt>
      <trkpt lat="48.43235" lon="2.64581">
        <ele>101.40000152588</ele>
        <time>2013-12-05T14:02:40.000Z</time>
      </trkpt>
      <trkpt lat="48.43232" lon="2.64607">
        <ele>101.59999847412</ele>
        <time>2013-12-05T14:02:46.000Z</time>
      </trkpt>
      <trkpt lat="48.43229" lon="2.64628">
        <ele>102</ele>
        <time>2013-12-05T14:02:51.000Z</time>
      </trkpt>
      <trkpt lat="48.43223" lon="2.64649">
        <ele>102.59999847412</ele>
        <time>2013-12-05T14:02:56.000Z</time>
      </trkpt>
      <trkpt lat="48.43216" lon="2.6467">
        <ele>103.40000152588</ele>
        <time>2013-12-05T14:03:01.000Z</time>
      </trkpt>
      <trkpt lat="48.43209" lon="2.64683">
        <ele>103.80000305176</ele>
        <time>2013-12-05T14:03:05.000Z</time>
      </trkpt>
      <trkpt lat="48.432" lon="2.64699">
        <ele>104.19999694824</ele>
        <time>2013-12-05T14:03:10.000Z</time>
      </trkpt>
      <trkpt lat="48.43195" lon="2.64709">
        <ele>104.40000152588</ele>
        <time>2013-12-05T14:03:13.000Z</time>
      </trkpt>
      <trkpt lat="48.43191" lon="2.64723">
        <ele>104</ele>
        <time>2013-12-05T14:03:17.000Z</time>
      </trkpt>
      <trkpt lat="48.43187" lon="2.6473">
        <ele>103.80000305176</ele>
        <time>2013-12-05T14:03:19.000Z</time>
      </trkpt>
      <trkpt lat="48.43178" lon="2.64751">
        <ele>103.40000152588</ele>
        <time>2013-12-05T14:03:25.000Z</time>
      </trkpt>
      <trkpt lat="48.4317" lon="2.6476">
        <ele>103.40000152588</ele>
        <time>2013-12-05T14:03:29.000Z</time>
      </trkpt>
      <trkpt lat="48.43159" lon="2.64775">
        <ele>103.19999694824</ele>
        <time>2013-12-05T14:03:33.000Z</time>
      </trkpt>
      <trkpt lat="48.43149" lon="2.64783">
        <ele>102.80000305176</ele>
        <time>2013-12-05T14:03:37.000Z</time>
      </trkpt>
      <trkpt lat="48.43135" lon="2.64791">
        <ele>102.59999847412</ele>
        <time>2013-12-05T14:03:42.000Z</time>
      </trkpt>
      <trkpt lat="48.43125" lon="2.64798">
        <ele>102.19999694824</ele>
        <time>2013-12-05T14:03:46.000Z</time>
      </trkpt>
      <trkpt lat="48.43113" lon="2.64811">
        <ele>101.59999847412</ele>
        <time>2013-12-05T14:03:51.000Z</time>
      </trkpt>
      <trkpt lat="48.43102" lon="2.64831">
        <ele>100.40000152588</ele>
        <time>2013-12-05T14:03:57.000Z</time>
      </trkpt>
      <trkpt lat="48.43093" lon="2.6485">
        <ele>100</ele>
        <time>2013-12-05T14:04:02.000Z</time>
      </trkpt>
      <trkpt lat="48.43082" lon="2.6487">
        <ele>100</ele>
        <time>2013-12-05T14:04:08.000Z</time>
      </trkpt>
      <trkpt lat="48.43071" lon="2.64883">
        <ele>100.19999694824</ele>
        <time>2013-12-05T14:04:13.000Z</time>
      </trkpt>
      <trkpt lat="48.43061" lon="2.64892">
        <ele>100.59999847412</ele>
        <time>2013-12-05T14:04:17.000Z</time>
      </trkpt>
      <trkpt lat="48.43052" lon="2.64906">
        <ele>100.80000305176</ele>
        <time>2013-12-05T14:04:22.000Z</time>
      </trkpt>
      <trkpt lat="48.43041" lon="2.64921">
        <ele>101</ele>
        <time>2013-12-05T14:04:27.000Z</time>
      </trkpt>
      <trkpt lat="48.43028" lon="2.64936">
        <ele>101.59999847412</ele>
        <time>2013-12-05T14:04:33.000Z</time>
      </trkpt>
      <trkpt lat="48.43026" lon="2.64937">
        <ele>101.59999847412</ele>
        <time>2013-12-05T14:04:34.000Z</time>
      </trkpt>
      <trkpt lat="48.4302" lon="2.64949">
        <ele>102</ele>
        <time>2013-12-05T14:04:38.000Z</time>
      </trkpt>
      <trkpt lat="48.43019" lon="2.64965">
        <ele>102.19999694824</ele>
        <time>2013-12-05T14:04:42.000Z</time>
      </trkpt>
      <trkpt lat="48.43018" lon="2.64985">
        <ele>102.40000152588</ele>
        <time>2013-12-05T14:04:47.000Z</time>
      </trkpt>
      <trkpt lat="48.43014" lon="2.64995">
        <ele>102.59999847412</ele>
        <time>2013-12-05T14:04:50.000Z</time>
      </trkpt>
      <trkpt lat="48.43012" lon="2.65001">
        <ele>102.80000305176</ele>
        <time>2013-12-05T14:04:52.000Z</time>
      </trkpt>
      <trkpt lat="48.43008" lon="2.65012">
        <ele>103</ele>
        <time>2013-12-05T14:04:55.000Z</time>
      </trkpt>
      <trkpt lat="48.43002" lon="2.65025">
        <ele>103</ele>
        <time>2013-12-05T14:04:59.000Z</time>
      </trkpt>
      <trkpt lat="48.42997" lon="2.65038">
        <ele>103.19999694824</ele>
        <time>2013-12-05T14:05:03.000Z</time>
      </trkpt>
      <trkpt lat="48.42987" lon="2.65051">
        <ele>104</ele>
        <time>2013-12-05T14:05:09.000Z</time>
      </trkpt>
      <trkpt lat="48.42974" lon="2.65059">
        <ele>105</ele>
        <time>2013-12-05T14:05:14.000Z</time>
      </trkpt>
      <trkpt lat="48.42962" lon="2.65063">
        <ele>106</ele>
        <time>2013-12-05T14:05:19.000Z</time>
      </trkpt>
      <trkpt lat="48.42959" lon="2.65062">
        <ele>106.19999694824</ele>
        <time>2013-12-05T14:05:20.000Z</time>
      </trkpt>
      <trkpt lat="48.42947" lon="2.65061">
        <ele>107.19999694824</ele>
        <time>2013-12-05T14:05:25.000Z</time>
      </trkpt>
      <trkpt lat="48.42936" lon="2.65069">
        <ele>108.19999694824</ele>
        <time>2013-12-05T14:05:30.000Z</time>
      </trkpt>
      <trkpt lat="48.42928" lon="2.65089">
        <ele>109.19999694824</ele>
        <time>2013-12-05T14:05:36.000Z</time>
      </trkpt>
      <trkpt lat="48.42921" lon="2.65106">
        <ele>110</ele>
        <time>2013-12-05T14:05:41.000Z</time>
      </trkpt>
      <trkpt lat="48.42919" lon="2.65108">
        <ele>110.19999694824</ele>
        <time>2013-12-05T14:05:42.000Z</time>
      </trkpt>
      <trkpt lat="48.42915" lon="2.65138">
        <ele>111</ele>
        <time>2013-12-05T14:05:49.000Z</time>
      </trkpt>
      <trkpt lat="48.42915" lon="2.65153">
        <ele>111.19999694824</ele>
        <time>2013-12-05T14:05:54.000Z</time>
      </trkpt>
      <trkpt lat="48.42914" lon="2.65159">
        <ele>111.40000152588</ele>
        <time>2013-12-05T14:05:56.000Z</time>
      </trkpt>
      <trkpt lat="48.42915" lon="2.65182">
        <ele>112.40000152588</ele>
        <time>2013-12-05T14:06:02.000Z</time>
      </trkpt>
      <trkpt lat="48.4291" lon="2.65206">
        <ele>115.19999694824</ele>
        <time>2013-12-05T14:06:08.000Z</time>
      </trkpt>
      <trkpt lat="48.42905" lon="2.65218">
        <ele>117</ele>
        <time>2013-12-05T14:06:12.000Z</time>
      </trkpt>
      <trkpt lat="48.42898" lon="2.65223">
        <ele>118.80000305176</ele>
        <time>2013-12-05T14:06:16.000Z</time>
      </trkpt>
      <trkpt lat="48.4289" lon="2.65238">
        <ele>121.40000152588</ele>
        <time>2013-12-05T14:06:22.000Z</time>
      </trkpt>
      <trkpt lat="48.42885" lon="2.65244">
        <ele>122.59999847412</ele>
        <time>2013-12-05T14:06:24.000Z</time>
      </trkpt>
      <trkpt lat="48.42882" lon="2.65265">
        <ele>124.80000305176</ele>
        <time>2013-12-05T14:06:31.000Z</time>
      </trkpt>
      <trkpt lat="48.42882" lon="2.65266">
        <ele>124.80000305176</ele>
        <time>2013-12-05T14:06:32.000Z</time>
      </trkpt>
      <trkpt lat="48.42881" lon="2.65268">
        <ele>125</ele>
        <time>2013-12-05T14:06:33.000Z</time>
      </trkpt>
      <trkpt lat="48.4288" lon="2.65276">
        <ele>125.80000305176</ele>
        <time>2013-12-05T14:06:37.000Z</time>
      </trkpt>
      <trkpt lat="48.42881" lon="2.65277">
        <ele>125.59999847412</ele>
        <time>2013-12-05T14:06:38.000Z</time>
      </trkpt>
      <trkpt lat="48.42882" lon="2.65284">
        <ele>126</ele>
        <time>2013-12-05T14:06:42.000Z</time>
      </trkpt>
      <trkpt lat="48.42882" lon="2.65287">
        <ele>126</ele>
        <time>2013-12-05T14:06:44.000Z</time>
      </trkpt>
      <trkpt lat="48.42882" lon="2.65292">
        <ele>126.40000152588</ele>
        <time>2013-12-05T14:06:47.000Z</time>
      </trkpt>
      <trkpt lat="48.42884" lon="2.65301">
        <ele>126.80000305176</ele>
        <time>2013-12-05T14:06:53.000Z</time>
      </trkpt>
      <trkpt lat="48.42886" lon="2.6531">
        <ele>127</ele>
        <time>2013-12-05T14:06:58.000Z</time>
      </trkpt>
      <trkpt lat="48.4289" lon="2.65317">
        <ele>127</ele>
        <time>2013-12-05T14:07:03.000Z</time>
      </trkpt>
      <trkpt lat="48.42891" lon="2.65327">
        <ele>127.59999847412</ele>
        <time>2013-12-05T14:07:08.000Z</time>
      </trkpt>
      <trkpt lat="48.42892" lon="2.65334">
        <ele>128</ele>
        <time>2013-12-05T14:07:12.000Z</time>
      </trkpt>
      <trkpt lat="48.42896" lon="2.65346">
        <ele>128.60000610352</ele>
        <time>2013-12-05T14:07:17.000Z</time>
      </trkpt>
      <trkpt lat="48.42896" lon="2.65352">
        <ele>129</ele>
        <time>2013-12-05T14:07:19.000Z</time>
      </trkpt>
      <trkpt lat="48.42896" lon="2.65376">
        <ele>130.80000305176</ele>
        <time>2013-12-05T14:07:26.000Z</time>
      </trkpt>
      <trkpt lat="48.42895" lon="2.65394">
        <ele>132.19999694824</ele>
        <time>2013-12-05T14:07:31.000Z</time>
      </trkpt>
      <trkpt lat="48.42896" lon="2.65412">
        <ele>133.60000610352</ele>
        <time>2013-12-05T14:07:36.000Z</time>
      </trkpt>
      <trkpt lat="48.42896" lon="2.65415">
        <ele>133.80000305176</ele>
        <time>2013-12-05T14:07:37.000Z</time>
      </trkpt>
      <trkpt lat="48.4289" lon="2.65433">
        <ele>134.39999389648</ele>
        <time>2013-12-05T14:07:42.000Z</time>
      </trkpt>
      <trkpt lat="48.42882" lon="2.65449">
        <ele>134.80000305176</ele>
        <time>2013-12-05T14:07:47.000Z</time>
      </trkpt>
      <trkpt lat="48.42876" lon="2.65467">
        <ele>135</ele>
        <time>2013-12-05T14:07:52.000Z</time>
      </trkpt>
      <trkpt lat="48.42875" lon="2.65474">
        <ele>135</ele>
        <time>2013-12-05T14:07:54.000Z</time>
      </trkpt>
      <trkpt lat="48.42866" lon="2.65487">
        <ele>135.19999694824</ele>
        <time>2013-12-05T14:07:59.000Z</time>
      </trkpt>
      <trkpt lat="48.4286" lon="2.65493">
        <ele>135.39999389648</ele>
        <time>2013-12-05T14:08:02.000Z</time>
      </trkpt>
      <trkpt lat="48.42847" lon="2.65501">
        <ele>135.80000305176</ele>
        <time>2013-12-05T14:08:07.000Z</time>
      </trkpt>
      <trkpt lat="48.42847" lon="2.65528">
        <ele>136.60000610352</ele>
        <time>2013-12-05T14:08:13.000Z</time>
      </trkpt>
      <trkpt lat="48.42849" lon="2.65535">
        <ele>136.80000305176</ele>
        <time>2013-12-05T14:08:15.000Z</time>
      </trkpt>
      <trkpt lat="48.42854" lon="2.65548">
        <ele>137.19999694824</ele>
        <time>2013-12-05T14:08:19.000Z</time>
      </trkpt>
      <trkpt lat="48.42855" lon="2.65552">
        <ele>137.19999694824</ele>
        <time>2013-12-05T14:08:20.000Z</time>
      </trkpt>
      <trkpt lat="48.42862" lon="2.65573">
        <ele>137.60000610352</ele>
        <time>2013-12-05T14:08:26.000Z</time>
      </trkpt>
      <trkpt lat="48.42867" lon="2.65583">
        <ele>137.80000305176</ele>
        <time>2013-12-05T14:08:29.000Z</time>
      </trkpt>
      <trkpt lat="48.42869" lon="2.65592">
        <ele>137.80000305176</ele>
        <time>2013-12-05T14:08:31.000Z</time>
      </trkpt>
      <trkpt lat="48.42876" lon="2.65614">
        <ele>137.80000305176</ele>
        <time>2013-12-05T14:08:37.000Z</time>
      </trkpt>
      <trkpt lat="48.42877" lon="2.65617">
        <ele>137.80000305176</ele>
        <time>2013-12-05T14:08:38.000Z</time>
      </trkpt>
      <trkpt lat="48.42885" lon="2.65637">
        <ele>137.80000305176</ele>
        <time>2013-12-05T14:08:44.000Z</time>
      </trkpt>
      <trkpt lat="48.42888" lon="2.65643">
        <ele>137.80000305176</ele>
        <time>2013-12-05T14:08:46.000Z</time>
      </trkpt>
      <trkpt lat="48.42903" lon="2.65653">
        <ele>137.39999389648</ele>
        <time>2013-12-05T14:08:52.000Z</time>
      </trkpt>
      <trkpt lat="48.42904" lon="2.65656">
        <ele>137.39999389648</ele>
        <time>2013-12-05T14:08:53.000Z</time>
      </trkpt>
      <trkpt lat="48.42904" lon="2.65671">
        <ele>137.39999389648</ele>
        <time>2013-12-05T14:08:57.000Z</time>
      </trkpt>
      <trkpt lat="48.42906" lon="2.65692">
        <ele>137.80000305176</ele>
        <time>2013-12-05T14:09:02.000Z</time>
      </trkpt>
      <trkpt lat="48.42904" lon="2.65696">
        <ele>137.80000305176</ele>
        <time>2013-12-05T14:09:03.000Z</time>
      </trkpt>
      <trkpt lat="48.42901" lon="2.65707">
        <ele>138</ele>
        <time>2013-12-05T14:09:06.000Z</time>
      </trkpt>
      <trkpt lat="48.42901" lon="2.65725">
        <ele>138.19999694824</ele>
        <time>2013-12-05T14:09:11.000Z</time>
      </trkpt>
      <trkpt lat="48.42902" lon="2.65729">
        <ele>138.19999694824</ele>
        <time>2013-12-05T14:09:12.000Z</time>
      </trkpt>
      <trkpt lat="48.42902" lon="2.65733">
        <ele>138.39999389648</ele>
        <time>2013-12-05T14:09:13.000Z</time>
      </trkpt>
      <trkpt lat="48.42898" lon="2.65749">
        <ele>138.60000610352</ele>
        <time>2013-12-05T14:09:17.000Z</time>
      </trkpt>
      <trkpt lat="48.42895" lon="2.65758">
        <ele>138.80000305176</ele>
        <time>2013-12-05T14:09:19.000Z</time>
      </trkpt>
      <trkpt lat="48.4289" lon="2.65779">
        <ele>139</ele>
        <time>2013-12-05T14:09:24.000Z</time>
      </trkpt>
      <trkpt lat="48.42889" lon="2.65787">
        <ele>139</ele>
        <time>2013-12-05T14:09:26.000Z</time>
      </trkpt>
      <trkpt lat="48.42887" lon="2.65794">
        <ele>139</ele>
        <time>2013-12-05T14:09:28.000Z</time>
      </trkpt>
      <trkpt lat="48.42877" lon="2.65821">
        <ele>139.39999389648</ele>
        <time>2013-12-05T14:09:35.000Z</time>
      </trkpt>
      <trkpt lat="48.42876" lon="2.65826">
        <ele>139.39999389648</ele>
        <time>2013-12-05T14:09:36.000Z</time>
      </trkpt>
      <trkpt lat="48.42873" lon="2.65853">
        <ele>140</ele>
        <time>2013-12-05T14:09:42.000Z</time>
      </trkpt>
      <trkpt lat="48.42867" lon="2.65873">
        <ele>140.60000610352</ele>
        <time>2013-12-05T14:09:47.000Z</time>
      </trkpt>
      <trkpt lat="48.4286" lon="2.65883">
        <ele>141</ele>
        <time>2013-12-05T14:09:51.000Z</time>
      </trkpt>
      <trkpt lat="48.42855" lon="2.65887">
        <ele>141.39999389648</ele>
        <time>2013-12-05T14:09:53.000Z</time>
      </trkpt>
      <trkpt lat="48.42851" lon="2.65901">
        <ele>141.80000305176</ele>
        <time>2013-12-05T14:09:57.000Z</time>
      </trkpt>
      <trkpt lat="48.42856" lon="2.65915">
        <ele>141.80000305176</ele>
        <time>2013-12-05T14:10:01.000Z</time>
      </trkpt>
      <trkpt lat="48.42857" lon="2.65919">
        <ele>141.80000305176</ele>
        <time>2013-12-05T14:10:02.000Z</time>
      </trkpt>
      <trkpt lat="48.42858" lon="2.65923">
        <ele>141.80000305176</ele>
        <time>2013-12-05T14:10:03.000Z</time>
      </trkpt>
      <trkpt lat="48.42852" lon="2.65931">
        <ele>142.19999694824</ele>
        <time>2013-12-05T14:10:08.000Z</time>
      </trkpt>
      <trkpt lat="48.42841" lon="2.65932">
        <ele>142.60000610352</ele>
        <time>2013-12-05T14:10:14.000Z</time>
      </trkpt>
      <trkpt lat="48.42836" lon="2.65933">
        <ele>142.80000305176</ele>
        <time>2013-12-05T14:10:18.000Z</time>
      </trkpt>
      <trkpt lat="48.42833" lon="2.65933">
        <ele>143</ele>
        <time>2013-12-05T14:10:20.000Z</time>
      </trkpt>
    </trkseg>
  </trk>
</gpx>